<?xml version="1.0" encoding="utf-8"?>
<gpx creator="Garmin Explore App" version="1.1" xmlns:adv="http://www.garmin.com/xmlschemas/AdventuresExtensions/v1" xmlns:gpxtpx="http://www.garmin.com/xmlschemas/TrackPointExtension/v1" xmlns:gpxtrx="http://www.garmin.com/xmlschemas/GpxExtensions/v3" xmlns:gpxx="http://www.garmin.com/xmlschemas/GpxExtensions/v3" xmlns:trp="http://www.garmin.com/xmlschemas/TripExtensions/v1" xmlns:wptx1="http://www.garmin.com/xmlschemas/WaypointExtension/v1" xmlns:xsi="http://www.w3.org/2001/XMLSchema-instance" xmlns="http://www.topografix.com/GPX/1/1" xsi:schemaLocation="http://www.topografix.com/GPX/1/1 http://www.topografix.com/GPX/1/1/gpx.xsd http://www.garmin.com/xmlschemas/WaypointExtension/v1 http://www8.garmin.com/xmlschemas/WaypointExtensionv1.xsd http://www.garmin.com/xmlschemas/TrackPointExtension/v1 http://www.garmin.com/xmlschemas/TrackPointExtensionv1.xsd http://www.garmin.com/xmlschemas/GpxExtensions/v3 http://www8.garmin.com/xmlschemas/GpxExtensionsv3.xsd http://www.garmin.com/xmlschemas/ActivityExtension/v1 http://www8.garmin.com/xmlschemas/ActivityExtensionv1.xsd http://www.garmin.com/xmlschemas/AdventuresExtensions/v1 http://www8.garmin.com/xmlschemas/AdventuresExtensionv1.xsd http://www.garmin.com/xmlschemas/PressureExtension/v1 http://www.garmin.com/xmlschemas/PressureExtensionv1.xsd">
	<metadata>
		<name>2026-04-25 16:24:17</name>
		<link href="http://www.garmin.com">
			<text>Garmin International</text>
		</link>
		<time>2026-04-25T13:45:04Z</time>
	</metadata>
	<trk>
		<name>2026-04-25 16:24:17</name>
		<extensions>
			<gpxx:TrackExtension>
				<gpxx:DisplayColor>Cyan</gpxx:DisplayColor>
			</gpxx:TrackExtension>
		</extensions>
		<trkseg>
			<trkpt lat="59.0925509929657" lon="29.98826801776886">
				<ele>38.45000076293945</ele>
				<time>2026-04-25T07:35:37Z</time>
			</trkpt>
			<trkpt lat="59.09255051612854" lon="29.988267421722412">
				<ele>38.45000076293945</ele>
				<time>2026-04-25T07:35:38Z</time>
			</trkpt>
			<trkpt lat="59.09254837036133" lon="29.98826575279236">
				<ele>77.80999755859375</ele>
				<time>2026-04-25T07:35:41Z</time>
			</trkpt>
			<trkpt lat="59.0925475358963" lon="29.988266110420227">
				<ele>77.80999755859375</ele>
				<time>2026-04-25T07:35:42Z</time>
			</trkpt>
			<trkpt lat="59.09254431724548" lon="29.988263249397278">
				<ele>76.44000244140625</ele>
				<time>2026-04-25T07:36:05Z</time>
			</trkpt>
			<trkpt lat="59.09256732463837" lon="29.988299131393433">
				<ele>76.16000366210938</ele>
				<time>2026-04-25T07:36:23Z</time>
			</trkpt>
			<trkpt lat="59.09257197380066" lon="29.988333344459534">
				<ele>73.80999755859375</ele>
				<time>2026-04-25T07:36:31Z</time>
			</trkpt>
			<trkpt lat="59.09255564212799" lon="29.98831856250763">
				<ele>71.16999816894531</ele>
				<time>2026-04-25T07:36:55Z</time>
			</trkpt>
			<trkpt lat="59.092546463012695" lon="29.98833429813385">
				<ele>69.4000015258789</ele>
				<time>2026-04-25T07:37:14Z</time>
			</trkpt>
			<trkpt lat="59.09257209300995" lon="29.988367199897766">
				<ele>68.5199966430664</ele>
				<time>2026-04-25T07:37:21Z</time>
			</trkpt>
			<trkpt lat="59.092644810676575" lon="29.988695979118347">
				<ele>67.55999755859375</ele>
				<time>2026-04-25T07:37:40Z</time>
			</trkpt>
			<trkpt lat="59.09267842769623" lon="29.988800764083862">
				<ele>67.02999877929688</ele>
				<time>2026-04-25T07:37:46Z</time>
			</trkpt>
			<trkpt lat="59.092726707458496" lon="29.98899281024933">
				<ele>66.4800033569336</ele>
				<time>2026-04-25T07:37:55Z</time>
			</trkpt>
			<trkpt lat="59.092793464660645" lon="29.989349961280823">
				<ele>66.01000213623047</ele>
				<time>2026-04-25T07:38:11Z</time>
			</trkpt>
			<trkpt lat="59.09286117553711" lon="29.98962378501892">
				<ele>66.19000244140625</ele>
				<time>2026-04-25T07:38:26Z</time>
			</trkpt>
			<trkpt lat="59.092939496040344" lon="29.989944458007812">
				<ele>65.70999908447266</ele>
				<time>2026-04-25T07:38:42Z</time>
			</trkpt>
			<trkpt lat="59.09303021430969" lon="29.9902104139328">
				<ele>65.77999877929688</ele>
				<time>2026-04-25T07:39:00Z</time>
			</trkpt>
			<trkpt lat="59.093039751052856" lon="29.990225672721863">
				<ele>65.6500015258789</ele>
				<time>2026-04-25T07:39:01Z</time>
			</trkpt>
			<trkpt lat="59.09307837486267" lon="29.99032759666443">
				<ele>65.9800033569336</ele>
				<time>2026-04-25T07:39:06Z</time>
			</trkpt>
			<trkpt lat="59.093180656433105" lon="29.990668773651123">
				<ele>66.9800033569336</ele>
				<time>2026-04-25T07:39:23Z</time>
			</trkpt>
			<trkpt lat="59.09326148033142" lon="29.991044759750366">
				<ele>68.29000091552734</ele>
				<time>2026-04-25T07:39:43Z</time>
			</trkpt>
			<trkpt lat="59.093337535858154" lon="29.991604685783386">
				<ele>68.5999984741211</ele>
				<time>2026-04-25T07:40:04Z</time>
			</trkpt>
			<trkpt lat="59.09341478347778" lon="29.99208700656891">
				<ele>68.66999816894531</ele>
				<time>2026-04-25T07:40:26Z</time>
			</trkpt>
			<trkpt lat="59.09347379207611" lon="29.992345333099365">
				<ele>69.31999969482422</ele>
				<time>2026-04-25T07:40:42Z</time>
			</trkpt>
			<trkpt lat="59.09354257583618" lon="29.99292778968811">
				<ele>69.2300033569336</ele>
				<time>2026-04-25T07:41:06Z</time>
			</trkpt>
			<trkpt lat="59.09360706806183" lon="29.993306159973145">
				<ele>69.48999786376953</ele>
				<time>2026-04-25T07:41:22Z</time>
			</trkpt>
			<trkpt lat="59.09357249736786" lon="29.99387013912201">
				<ele>69.80000305175781</ele>
				<time>2026-04-25T07:41:40Z</time>
			</trkpt>
			<trkpt lat="59.09363770484924" lon="29.994181752204895">
				<ele>70.16000366210938</ele>
				<time>2026-04-25T07:41:52Z</time>
			</trkpt>
			<trkpt lat="59.09367215633392" lon="29.99457323551178">
				<ele>71.0199966430664</ele>
				<time>2026-04-25T07:42:08Z</time>
			</trkpt>
			<trkpt lat="59.09367489814758" lon="29.994834661483765">
				<ele>72.68000030517578</ele>
				<time>2026-04-25T07:42:24Z</time>
			</trkpt>
			<trkpt lat="59.09368848800659" lon="29.994886875152588">
				<ele>72.91999816894531</ele>
				<time>2026-04-25T07:42:27Z</time>
			</trkpt>
			<trkpt lat="59.09379982948303" lon="29.995223879814148">
				<ele>74.52999877929688</ele>
				<time>2026-04-25T07:42:46Z</time>
			</trkpt>
			<trkpt lat="59.09384214878082" lon="29.995357990264893">
				<ele>75.27999877929688</ele>
				<time>2026-04-25T07:42:53Z</time>
			</trkpt>
			<trkpt lat="59.09385824203491" lon="29.995706796646118">
				<ele>76.5999984741211</ele>
				<time>2026-04-25T07:43:08Z</time>
			</trkpt>
			<trkpt lat="59.093868017196655" lon="29.995885014533997">
				<ele>77.55999755859375</ele>
				<time>2026-04-25T07:43:15Z</time>
			</trkpt>
			<trkpt lat="59.09393835067749" lon="29.9962500333786">
				<ele>80.04000091552734</ele>
				<time>2026-04-25T07:43:32Z</time>
			</trkpt>
			<trkpt lat="59.09413027763367" lon="29.996618270874023">
				<ele>82.83000183105469</ele>
				<time>2026-04-25T07:43:55Z</time>
			</trkpt>
			<trkpt lat="59.094135999679565" lon="29.99717926979065">
				<ele>85.0999984741211</ele>
				<time>2026-04-25T07:44:16Z</time>
			</trkpt>
			<trkpt lat="59.094295382499695" lon="29.99752640724182">
				<ele>87.5199966430664</ele>
				<time>2026-04-25T07:44:36Z</time>
			</trkpt>
			<trkpt lat="59.094340085983276" lon="29.99780023097992">
				<ele>88.88999938964844</ele>
				<time>2026-04-25T07:44:49Z</time>
			</trkpt>
			<trkpt lat="59.09440279006958" lon="29.998148202896118">
				<ele>90.97000122070312</ele>
				<time>2026-04-25T07:45:05Z</time>
			</trkpt>
			<trkpt lat="59.09441602230072" lon="29.998219966888428">
				<ele>91.27999877929688</ele>
				<time>2026-04-25T07:45:08Z</time>
			</trkpt>
			<trkpt lat="59.094399213790894" lon="29.998375058174133">
				<ele>91.83999633789062</ele>
				<time>2026-04-25T07:45:12Z</time>
			</trkpt>
			<trkpt lat="59.094423055648804" lon="29.99887263774872">
				<ele>93.5199966430664</ele>
				<time>2026-04-25T07:45:29Z</time>
			</trkpt>
			<trkpt lat="59.09449005126953" lon="29.99910569190979">
				<ele>94.37999725341797</ele>
				<time>2026-04-25T07:45:40Z</time>
			</trkpt>
			<trkpt lat="59.094587206840515" lon="29.99947464466095">
				<ele>95.68000030517578</ele>
				<time>2026-04-25T07:45:55Z</time>
			</trkpt>
			<trkpt lat="59.09465253353119" lon="29.999844908714294">
				<ele>97.7300033569336</ele>
				<time>2026-04-25T07:46:15Z</time>
			</trkpt>
			<trkpt lat="59.09477460384369" lon="30.000322818756104">
				<ele>100.81999969482422</ele>
				<time>2026-04-25T07:46:38Z</time>
			</trkpt>
			<trkpt lat="59.09488344192505" lon="30.000832676887512">
				<ele>103.41000366210938</ele>
				<time>2026-04-25T07:46:58Z</time>
			</trkpt>
			<trkpt lat="59.09490895271301" lon="30.00099754333496">
				<ele>104.68000030517578</ele>
				<time>2026-04-25T07:47:13Z</time>
			</trkpt>
			<trkpt lat="59.09491562843323" lon="30.00130045413971">
				<ele>105.86000061035156</ele>
				<time>2026-04-25T07:47:28Z</time>
			</trkpt>
			<trkpt lat="59.09497344493866" lon="30.00169050693512">
				<ele>107.12999725341797</ele>
				<time>2026-04-25T07:47:43Z</time>
			</trkpt>
			<trkpt lat="59.095051884651184" lon="30.002073884010315">
				<ele>108.18000030517578</ele>
				<time>2026-04-25T07:48:00Z</time>
			</trkpt>
			<trkpt lat="59.09505617618561" lon="30.00221300125122">
				<ele>109.18000030517578</ele>
				<time>2026-04-25T07:48:14Z</time>
			</trkpt>
			<trkpt lat="59.09500992298126" lon="30.0022052526474">
				<ele>110.13999938964844</ele>
				<time>2026-04-25T07:48:31Z</time>
			</trkpt>
			<trkpt lat="59.09496343135834" lon="30.002312421798706">
				<ele>111.8499984741211</ele>
				<time>2026-04-25T07:48:53Z</time>
			</trkpt>
			<trkpt lat="59.09486901760101" lon="30.002344012260437">
				<ele>113.0</ele>
				<time>2026-04-25T07:49:13Z</time>
			</trkpt>
			<trkpt lat="59.094749331474304" lon="30.002354502677917">
				<ele>114.94999694824219</ele>
				<time>2026-04-25T07:49:35Z</time>
			</trkpt>
			<trkpt lat="59.09474802017212" lon="30.00233817100525">
				<ele>117.08999633789062</ele>
				<time>2026-04-25T07:49:57Z</time>
			</trkpt>
			<trkpt lat="59.09473359584808" lon="30.002350211143494">
				<ele>117.69000244140625</ele>
				<time>2026-04-25T07:50:06Z</time>
			</trkpt>
			<trkpt lat="59.094584703445435" lon="30.002305150032043">
				<ele>116.05999755859375</ele>
				<time>2026-04-25T07:50:32Z</time>
			</trkpt>
			<trkpt lat="59.094488859176636" lon="30.002312183380127">
				<ele>115.4000015258789</ele>
				<time>2026-04-25T07:50:51Z</time>
			</trkpt>
			<trkpt lat="59.09434270858765" lon="30.002303957939148">
				<ele>116.70999908447266</ele>
				<time>2026-04-25T07:51:12Z</time>
			</trkpt>
			<trkpt lat="59.09419786930084" lon="30.00242781639099">
				<ele>118.05999755859375</ele>
				<time>2026-04-25T07:51:35Z</time>
			</trkpt>
			<trkpt lat="59.09409546852112" lon="30.002496123313904">
				<ele>118.80999755859375</ele>
				<time>2026-04-25T07:51:56Z</time>
			</trkpt>
			<trkpt lat="59.093995690345764" lon="30.002504348754883">
				<ele>120.25</ele>
				<time>2026-04-25T07:52:15Z</time>
			</trkpt>
			<trkpt lat="59.09386432170868" lon="30.00251007080078">
				<ele>121.33000183105469</ele>
				<time>2026-04-25T07:52:37Z</time>
			</trkpt>
			<trkpt lat="59.09377372264862" lon="30.002516865730286">
				<ele>123.19000244140625</ele>
				<time>2026-04-25T07:52:59Z</time>
			</trkpt>
			<trkpt lat="59.09373915195465" lon="30.00252866744995">
				<ele>123.4800033569336</ele>
				<time>2026-04-25T07:53:03Z</time>
			</trkpt>
			<trkpt lat="59.09363603591919" lon="30.00254511833191">
				<ele>125.19000244140625</ele>
				<time>2026-04-25T07:53:25Z</time>
			</trkpt>
			<trkpt lat="59.093512415885925" lon="30.002550721168518">
				<ele>127.29000091552734</ele>
				<time>2026-04-25T07:53:50Z</time>
			</trkpt>
			<trkpt lat="59.09345865249634" lon="30.002582669258118">
				<ele>129.1999969482422</ele>
				<time>2026-04-25T07:54:12Z</time>
			</trkpt>
			<trkpt lat="59.093401193618774" lon="30.002559423446655">
				<ele>130.08999633789062</ele>
				<time>2026-04-25T07:54:44Z</time>
			</trkpt>
			<trkpt lat="59.09337031841278" lon="30.00264072418213">
				<ele>129.7899932861328</ele>
				<time>2026-04-25T07:55:11Z</time>
			</trkpt>
			<trkpt lat="59.09328818321228" lon="30.00276553630829">
				<ele>130.22000122070312</ele>
				<time>2026-04-25T07:55:30Z</time>
			</trkpt>
			<trkpt lat="59.093241810798645" lon="30.002806782722473">
				<ele>131.00999450683594</ele>
				<time>2026-04-25T07:55:50Z</time>
			</trkpt>
			<trkpt lat="59.093167185783386" lon="30.002760648727417">
				<ele>131.66000366210938</ele>
				<time>2026-04-25T07:56:10Z</time>
			</trkpt>
			<trkpt lat="59.09307885169983" lon="30.002756357192993">
				<ele>132.2899932861328</ele>
				<time>2026-04-25T07:56:30Z</time>
			</trkpt>
			<trkpt lat="59.092984080314636" lon="30.002727270126343">
				<ele>133.38999938964844</ele>
				<time>2026-04-25T07:56:51Z</time>
			</trkpt>
			<trkpt lat="59.09288954734802" lon="30.00272536277771">
				<ele>134.3300018310547</ele>
				<time>2026-04-25T07:57:15Z</time>
			</trkpt>
			<trkpt lat="59.09282946586609" lon="30.002729535102844">
				<ele>133.9600067138672</ele>
				<time>2026-04-25T07:57:26Z</time>
			</trkpt>
			<trkpt lat="59.09268927574158" lon="30.002789616584778">
				<ele>133.7899932861328</ele>
				<time>2026-04-25T07:57:50Z</time>
			</trkpt>
			<trkpt lat="59.09257471561432" lon="30.002819895744324">
				<ele>133.9199981689453</ele>
				<time>2026-04-25T07:58:15Z</time>
			</trkpt>
			<trkpt lat="59.09256172180176" lon="30.002849102020264">
				<ele>134.10000610351562</ele>
				<time>2026-04-25T07:58:19Z</time>
			</trkpt>
			<trkpt lat="59.09240794181824" lon="30.002869486808777">
				<ele>134.1300048828125</ele>
				<time>2026-04-25T07:58:45Z</time>
			</trkpt>
			<trkpt lat="59.092406272888184" lon="30.002896904945374">
				<ele>133.88999938964844</ele>
				<time>2026-04-25T07:58:52Z</time>
			</trkpt>
			<trkpt lat="59.0923832654953" lon="30.002950191497803">
				<ele>132.05999755859375</ele>
				<time>2026-04-25T07:59:11Z</time>
			</trkpt>
			<trkpt lat="59.092331290245056" lon="30.002949953079224">
				<ele>131.17999267578125</ele>
				<time>2026-04-25T07:59:40Z</time>
			</trkpt>
			<trkpt lat="59.09222626686096" lon="30.002930760383606">
				<ele>129.5399932861328</ele>
				<time>2026-04-25T08:00:03Z</time>
			</trkpt>
			<trkpt lat="59.092108845710754" lon="30.00296449661255">
				<ele>129.57000732421875</ele>
				<time>2026-04-25T08:00:25Z</time>
			</trkpt>
			<trkpt lat="59.091986894607544" lon="30.002957224845886">
				<ele>130.22000122070312</ele>
				<time>2026-04-25T08:00:45Z</time>
			</trkpt>
			<trkpt lat="59.09184491634369" lon="30.002885699272156">
				<ele>130.89999389648438</ele>
				<time>2026-04-25T08:01:09Z</time>
			</trkpt>
			<trkpt lat="59.09173405170441" lon="30.002843976020813">
				<ele>131.57000732421875</ele>
				<time>2026-04-25T08:01:30Z</time>
			</trkpt>
			<trkpt lat="59.09162664413452" lon="30.002891302108765">
				<ele>131.7899932861328</ele>
				<time>2026-04-25T08:01:52Z</time>
			</trkpt>
			<trkpt lat="59.09150159358978" lon="30.002946257591248">
				<ele>132.27999877929688</ele>
				<time>2026-04-25T08:02:12Z</time>
			</trkpt>
			<trkpt lat="59.09136939048767" lon="30.00303888320923">
				<ele>132.3699951171875</ele>
				<time>2026-04-25T08:02:34Z</time>
			</trkpt>
			<trkpt lat="59.09133696556091" lon="30.003031015396118">
				<ele>132.0399932861328</ele>
				<time>2026-04-25T08:03:00Z</time>
			</trkpt>
			<trkpt lat="59.09132790565491" lon="30.003029346466064">
				<ele>132.00999450683594</ele>
				<time>2026-04-25T08:03:03Z</time>
			</trkpt>
			<trkpt lat="59.09126663208008" lon="30.003018260002136">
				<ele>130.9499969482422</ele>
				<time>2026-04-25T08:03:35Z</time>
			</trkpt>
			<trkpt lat="59.09125638008118" lon="30.003042101860046">
				<ele>130.0500030517578</ele>
				<time>2026-04-25T08:03:54Z</time>
			</trkpt>
			<trkpt lat="59.09121859073639" lon="30.003122568130493">
				<ele>129.5800018310547</ele>
				<time>2026-04-25T08:04:17Z</time>
			</trkpt>
			<trkpt lat="59.09112465381622" lon="30.003196954727173">
				<ele>129.8800048828125</ele>
				<time>2026-04-25T08:04:40Z</time>
			</trkpt>
			<trkpt lat="59.09102129936218" lon="30.00322139263153">
				<ele>130.19000244140625</ele>
				<time>2026-04-25T08:05:03Z</time>
			</trkpt>
			<trkpt lat="59.090946197509766" lon="30.003241539001465">
				<ele>130.4499969482422</ele>
				<time>2026-04-25T08:05:19Z</time>
			</trkpt>
			<trkpt lat="59.09081554412842" lon="30.003316402435303">
				<ele>130.9199981689453</ele>
				<time>2026-04-25T08:05:40Z</time>
			</trkpt>
			<trkpt lat="59.09071958065033" lon="30.003392815589905">
				<ele>131.27999877929688</ele>
				<time>2026-04-25T08:05:59Z</time>
			</trkpt>
			<trkpt lat="59.09061563014984" lon="30.00345277786255">
				<ele>132.1199951171875</ele>
				<time>2026-04-25T08:06:21Z</time>
			</trkpt>
			<trkpt lat="59.09050142765045" lon="30.003495693206787">
				<ele>132.50999450683594</ele>
				<time>2026-04-25T08:06:40Z</time>
			</trkpt>
			<trkpt lat="59.09041213989258" lon="30.003506302833557">
				<ele>133.07000732421875</ele>
				<time>2026-04-25T08:06:59Z</time>
			</trkpt>
			<trkpt lat="59.09032380580902" lon="30.00354778766632">
				<ele>133.4600067138672</ele>
				<time>2026-04-25T08:07:23Z</time>
			</trkpt>
			<trkpt lat="59.090271949768066" lon="30.00350272655487">
				<ele>133.3699951171875</ele>
				<time>2026-04-25T08:07:50Z</time>
			</trkpt>
			<trkpt lat="59.09024691581726" lon="30.003566026687622">
				<ele>130.94000244140625</ele>
				<time>2026-04-25T08:08:23Z</time>
			</trkpt>
			<trkpt lat="59.090214133262634" lon="30.00341272354126">
				<ele>129.22000122070312</ele>
				<time>2026-04-25T08:08:40Z</time>
			</trkpt>
			<trkpt lat="59.09013795852661" lon="30.0034521818161">
				<ele>128.0500030517578</ele>
				<time>2026-04-25T08:09:03Z</time>
			</trkpt>
			<trkpt lat="59.090028166770935" lon="30.0034019947052">
				<ele>127.87999725341797</ele>
				<time>2026-04-25T08:09:25Z</time>
			</trkpt>
			<trkpt lat="59.08990442752838" lon="30.003438472747803">
				<ele>128.27999877929688</ele>
				<time>2026-04-25T08:09:49Z</time>
			</trkpt>
			<trkpt lat="59.08977782726288" lon="30.003483533859253">
				<ele>128.6199951171875</ele>
				<time>2026-04-25T08:10:08Z</time>
			</trkpt>
			<trkpt lat="59.08970272541046" lon="30.003507494926453">
				<ele>128.6699981689453</ele>
				<time>2026-04-25T08:10:23Z</time>
			</trkpt>
			<trkpt lat="59.08957660198212" lon="30.00347650051117">
				<ele>128.42999267578125</ele>
				<time>2026-04-25T08:10:44Z</time>
			</trkpt>
			<trkpt lat="59.0895060300827" lon="30.0034499168396">
				<ele>128.77000427246094</ele>
				<time>2026-04-25T08:11:01Z</time>
			</trkpt>
			<trkpt lat="59.08943796157837" lon="30.003501057624817">
				<ele>128.6199951171875</ele>
				<time>2026-04-25T08:11:22Z</time>
			</trkpt>
			<trkpt lat="59.08931744098663" lon="30.003506422042847">
				<ele>127.80999755859375</ele>
				<time>2026-04-25T08:11:49Z</time>
			</trkpt>
			<trkpt lat="59.08929228782654" lon="30.00344741344452">
				<ele>125.88999938964844</ele>
				<time>2026-04-25T08:12:14Z</time>
			</trkpt>
			<trkpt lat="59.089293122291565" lon="30.00343930721283">
				<ele>122.87999725341797</ele>
				<time>2026-04-25T08:12:44Z</time>
			</trkpt>
			<trkpt lat="59.089205861091614" lon="30.00346577167511">
				<ele>120.94999694824219</ele>
				<time>2026-04-25T08:13:01Z</time>
			</trkpt>
			<trkpt lat="59.0890679359436" lon="30.003470301628113">
				<ele>119.20999908447266</ele>
				<time>2026-04-25T08:13:28Z</time>
			</trkpt>
			<trkpt lat="59.08892464637756" lon="30.003336906433105">
				<ele>117.91999816894531</ele>
				<time>2026-04-25T08:13:53Z</time>
			</trkpt>
			<trkpt lat="59.08884418010712" lon="30.0034019947052">
				<ele>117.2699966430664</ele>
				<time>2026-04-25T08:14:15Z</time>
			</trkpt>
			<trkpt lat="59.08881902694702" lon="30.003472566604614">
				<ele>117.29000091552734</ele>
				<time>2026-04-25T08:14:37Z</time>
			</trkpt>
			<trkpt lat="59.08873653411865" lon="30.003326296806335">
				<ele>117.05999755859375</ele>
				<time>2026-04-25T08:14:55Z</time>
			</trkpt>
			<trkpt lat="59.08864641189575" lon="30.003248810768127">
				<ele>117.13999938964844</ele>
				<time>2026-04-25T08:15:18Z</time>
			</trkpt>
			<trkpt lat="59.08857536315918" lon="30.00322937965393">
				<ele>117.2300033569336</ele>
				<time>2026-04-25T08:15:39Z</time>
			</trkpt>
			<trkpt lat="59.088523745536804" lon="30.003185153007507">
				<ele>117.79000091552734</ele>
				<time>2026-04-25T08:15:56Z</time>
			</trkpt>
			<trkpt lat="59.0883926153183" lon="30.00306749343872">
				<ele>118.01000213623047</ele>
				<time>2026-04-25T08:16:17Z</time>
			</trkpt>
			<trkpt lat="59.08828032016754" lon="30.003097653388977">
				<ele>118.37000274658203</ele>
				<time>2026-04-25T08:16:40Z</time>
			</trkpt>
			<trkpt lat="59.08819341659546" lon="30.003092527389526">
				<ele>118.55000305175781</ele>
				<time>2026-04-25T08:17:00Z</time>
			</trkpt>
			<trkpt lat="59.08814096450806" lon="30.0030038356781">
				<ele>119.04000091552734</ele>
				<time>2026-04-25T08:17:21Z</time>
			</trkpt>
			<trkpt lat="59.0881325006485" lon="30.003003120422363">
				<ele>118.98999786376953</ele>
				<time>2026-04-25T08:17:48Z</time>
			</trkpt>
			<trkpt lat="59.08811104297638" lon="30.003016352653503">
				<ele>117.41000366210938</ele>
				<time>2026-04-25T08:18:13Z</time>
			</trkpt>
			<trkpt lat="59.088059306144714" lon="30.003016591072083">
				<ele>115.41000366210938</ele>
				<time>2026-04-25T08:18:35Z</time>
			</trkpt>
			<trkpt lat="59.087974548339844" lon="30.00297784805298">
				<ele>114.48999786376953</ele>
				<time>2026-04-25T08:18:50Z</time>
			</trkpt>
			<trkpt lat="59.08788883686066" lon="30.003008365631104">
				<ele>114.20999908447266</ele>
				<time>2026-04-25T08:19:07Z</time>
			</trkpt>
			<trkpt lat="59.08788084983826" lon="30.00300633907318">
				<ele>114.11000061035156</ele>
				<time>2026-04-25T08:19:09Z</time>
			</trkpt>
			<trkpt lat="59.087788581848145" lon="30.002999305725098">
				<ele>113.7300033569336</ele>
				<time>2026-04-25T08:19:28Z</time>
			</trkpt>
			<trkpt lat="59.087735176086426" lon="30.002986907958984">
				<ele>113.8499984741211</ele>
				<time>2026-04-25T08:19:49Z</time>
			</trkpt>
			<trkpt lat="59.08768630027771" lon="30.002999901771545">
				<ele>112.3499984741211</ele>
				<time>2026-04-25T08:20:15Z</time>
			</trkpt>
			<trkpt lat="59.087570905685425" lon="30.002982258796692">
				<ele>111.55000305175781</ele>
				<time>2026-04-25T08:20:38Z</time>
			</trkpt>
			<trkpt lat="59.08746325969696" lon="30.002943873405457">
				<ele>111.31999969482422</ele>
				<time>2026-04-25T08:20:57Z</time>
			</trkpt>
			<trkpt lat="59.08737123012543" lon="30.002825140953064">
				<ele>110.87999725341797</ele>
				<time>2026-04-25T08:21:18Z</time>
			</trkpt>
			<trkpt lat="59.087270736694336" lon="30.00282597541809">
				<ele>111.11000061035156</ele>
				<time>2026-04-25T08:21:36Z</time>
			</trkpt>
			<trkpt lat="59.08723533153534" lon="30.002790093421936">
				<ele>110.25</ele>
				<time>2026-04-25T08:22:02Z</time>
			</trkpt>
			<trkpt lat="59.08722233772278" lon="30.002797722816467">
				<ele>109.41999816894531</ele>
				<time>2026-04-25T08:22:27Z</time>
			</trkpt>
			<trkpt lat="59.087236762046814" lon="30.00278079509735">
				<ele>106.22000122070312</ele>
				<time>2026-04-25T08:22:54Z</time>
			</trkpt>
			<trkpt lat="59.08723199367523" lon="30.00278615951538">
				<ele>106.19000244140625</ele>
				<time>2026-04-25T08:22:55Z</time>
			</trkpt>
			<trkpt lat="59.087162375450134" lon="30.00278127193451">
				<ele>103.08000183105469</ele>
				<time>2026-04-25T08:23:13Z</time>
			</trkpt>
			<trkpt lat="59.08706045150757" lon="30.002742171287537">
				<ele>100.69999694824219</ele>
				<time>2026-04-25T08:23:32Z</time>
			</trkpt>
			<trkpt lat="59.086978793144226" lon="30.00269389152527">
				<ele>99.93000030517578</ele>
				<time>2026-04-25T08:23:49Z</time>
			</trkpt>
			<trkpt lat="59.08687889575958" lon="30.002605438232422">
				<ele>98.79000091552734</ele>
				<time>2026-04-25T08:24:08Z</time>
			</trkpt>
			<trkpt lat="59.086782336235046" lon="30.00261926651001">
				<ele>98.19000244140625</ele>
				<time>2026-04-25T08:24:28Z</time>
			</trkpt>
			<trkpt lat="59.086679577827454" lon="30.00274157524109">
				<ele>98.06999969482422</ele>
				<time>2026-04-25T08:24:52Z</time>
			</trkpt>
			<trkpt lat="59.08656632900238" lon="30.002808451652527">
				<ele>98.2300033569336</ele>
				<time>2026-04-25T08:25:10Z</time>
			</trkpt>
			<trkpt lat="59.086496233940125" lon="30.00278902053833">
				<ele>99.22000122070312</ele>
				<time>2026-04-25T08:25:31Z</time>
			</trkpt>
			<trkpt lat="59.08642888069153" lon="30.002647876739502">
				<ele>99.91999816894531</ele>
				<time>2026-04-25T08:25:49Z</time>
			</trkpt>
			<trkpt lat="59.086347818374634" lon="30.00251877307892">
				<ele>100.75</ele>
				<time>2026-04-25T08:26:09Z</time>
			</trkpt>
			<trkpt lat="59.0863116979599" lon="30.002480506896973">
				<ele>101.13999938964844</ele>
				<time>2026-04-25T08:26:19Z</time>
			</trkpt>
			<trkpt lat="59.086291670799255" lon="30.002349972724915">
				<ele>102.3499984741211</ele>
				<time>2026-04-25T08:26:48Z</time>
			</trkpt>
			<trkpt lat="59.08624279499054" lon="30.002341151237488">
				<ele>102.70999908447266</ele>
				<time>2026-04-25T08:27:10Z</time>
			</trkpt>
			<trkpt lat="59.086185693740845" lon="30.0024094581604">
				<ele>102.77999877929688</ele>
				<time>2026-04-25T08:27:33Z</time>
			</trkpt>
			<trkpt lat="59.0860880613327" lon="30.002387046813965">
				<ele>103.70999908447266</ele>
				<time>2026-04-25T08:27:55Z</time>
			</trkpt>
			<trkpt lat="59.08598065376282" lon="30.002312064170837">
				<ele>104.73999786376953</ele>
				<time>2026-04-25T08:28:17Z</time>
			</trkpt>
			<trkpt lat="59.08591449260712" lon="30.002280592918396">
				<ele>105.76000213623047</ele>
				<time>2026-04-25T08:28:33Z</time>
			</trkpt>
			<trkpt lat="59.08582866191864" lon="30.002203583717346">
				<ele>106.9800033569336</ele>
				<time>2026-04-25T08:28:55Z</time>
			</trkpt>
			<trkpt lat="59.08582246303558" lon="30.002199411392212">
				<ele>103.4800033569336</ele>
				<time>2026-04-25T08:29:05Z</time>
			</trkpt>
			<trkpt lat="59.085811376571655" lon="30.00219166278839">
				<ele>107.80000305175781</ele>
				<time>2026-04-25T08:29:07Z</time>
			</trkpt>
			<trkpt lat="59.08580422401428" lon="30.002200722694397">
				<ele>107.91000366210938</ele>
				<time>2026-04-25T08:29:08Z</time>
			</trkpt>
			<trkpt lat="59.08571004867554" lon="30.002132534980774">
				<ele>109.4000015258789</ele>
				<time>2026-04-25T08:29:28Z</time>
			</trkpt>
			<trkpt lat="59.08569252490997" lon="30.00211477279663">
				<ele>109.72000122070312</ele>
				<time>2026-04-25T08:29:31Z</time>
			</trkpt>
			<trkpt lat="59.08559465408325" lon="30.002164125442505">
				<ele>111.08999633789062</ele>
				<time>2026-04-25T08:29:56Z</time>
			</trkpt>
			<trkpt lat="59.08551597595215" lon="30.00219464302063">
				<ele>112.08000183105469</ele>
				<time>2026-04-25T08:30:15Z</time>
			</trkpt>
			<trkpt lat="59.08546042442322" lon="30.002100944519043">
				<ele>113.33000183105469</ele>
				<time>2026-04-25T08:30:37Z</time>
			</trkpt>
			<trkpt lat="59.085426330566406" lon="30.002066016197205">
				<ele>113.62999725341797</ele>
				<time>2026-04-25T08:30:57Z</time>
			</trkpt>
			<trkpt lat="59.085394620895386" lon="30.0020272731781">
				<ele>113.4800033569336</ele>
				<time>2026-04-25T08:31:11Z</time>
			</trkpt>
			<trkpt lat="59.08532977104187" lon="30.002013444900513">
				<ele>114.88999938964844</ele>
				<time>2026-04-25T08:31:44Z</time>
			</trkpt>
			<trkpt lat="59.08537566661835" lon="30.00213623046875">
				<ele>112.69999694824219</ele>
				<time>2026-04-25T08:32:08Z</time>
			</trkpt>
			<trkpt lat="59.08530843257904" lon="30.00211477279663">
				<ele>111.12000274658203</ele>
				<time>2026-04-25T08:32:30Z</time>
			</trkpt>
			<trkpt lat="59.08520448207855" lon="30.002036213874817">
				<ele>111.33000183105469</ele>
				<time>2026-04-25T08:32:50Z</time>
			</trkpt>
			<trkpt lat="59.08510398864746" lon="30.00195598602295">
				<ele>111.47000122070312</ele>
				<time>2026-04-25T08:33:13Z</time>
			</trkpt>
			<trkpt lat="59.08500051498413" lon="30.00185191631317">
				<ele>111.7300033569336</ele>
				<time>2026-04-25T08:33:38Z</time>
			</trkpt>
			<trkpt lat="59.08496057987213" lon="30.001834511756897">
				<ele>111.69999694824219</ele>
				<time>2026-04-25T08:33:44Z</time>
			</trkpt>
			<trkpt lat="59.08492588996887" lon="30.001831650733948">
				<ele>111.81999969482422</ele>
				<time>2026-04-25T08:33:53Z</time>
			</trkpt>
			<trkpt lat="59.08483672142029" lon="30.001755595207214">
				<ele>112.0999984741211</ele>
				<time>2026-04-25T08:34:18Z</time>
			</trkpt>
			<trkpt lat="59.08480727672577" lon="30.001556158065796">
				<ele>112.2300033569336</ele>
				<time>2026-04-25T08:34:41Z</time>
			</trkpt>
			<trkpt lat="59.084691643714905" lon="30.001648783683777">
				<ele>112.2300033569336</ele>
				<time>2026-04-25T08:35:03Z</time>
			</trkpt>
			<trkpt lat="59.084672927856445" lon="30.001704692840576">
				<ele>112.06999969482422</ele>
				<time>2026-04-25T08:35:07Z</time>
			</trkpt>
			<trkpt lat="59.08449971675873" lon="30.001619458198547">
				<ele>112.38999938964844</ele>
				<time>2026-04-25T08:35:35Z</time>
			</trkpt>
			<trkpt lat="59.08440673351288" lon="30.001603722572327">
				<ele>112.30999755859375</ele>
				<time>2026-04-25T08:35:57Z</time>
			</trkpt>
			<trkpt lat="59.084362626075745" lon="30.00152862071991">
				<ele>111.79000091552734</ele>
				<time>2026-04-25T08:36:18Z</time>
			</trkpt>
			<trkpt lat="59.08437240123749" lon="30.001453518867493">
				<ele>111.51000213623047</ele>
				<time>2026-04-25T08:36:35Z</time>
			</trkpt>
			<trkpt lat="59.084351897239685" lon="30.00138235092163">
				<ele>111.30000305175781</ele>
				<time>2026-04-25T08:37:07Z</time>
			</trkpt>
			<trkpt lat="59.084301233291626" lon="30.00144922733307">
				<ele>109.16000366210938</ele>
				<time>2026-04-25T08:37:35Z</time>
			</trkpt>
			<trkpt lat="59.08430480957031" lon="30.001450657844543">
				<ele>109.12999725341797</ele>
				<time>2026-04-25T08:37:36Z</time>
			</trkpt>
			<trkpt lat="59.084298729896545" lon="30.00149142742157">
				<ele>108.97000122070312</ele>
				<time>2026-04-25T08:37:39Z</time>
			</trkpt>
			<trkpt lat="59.08429169654846" lon="30.00154936313629">
				<ele>108.69999694824219</ele>
				<time>2026-04-25T08:37:43Z</time>
			</trkpt>
			<trkpt lat="59.084280490875244" lon="30.001795291900635">
				<ele>107.94999694824219</ele>
				<time>2026-04-25T08:38:05Z</time>
			</trkpt>
			<trkpt lat="59.08436119556427" lon="30.001906752586365">
				<ele>108.06999969482422</ele>
				<time>2026-04-25T08:38:27Z</time>
			</trkpt>
			<trkpt lat="59.0843209028244" lon="30.002126336097717">
				<ele>108.31999969482422</ele>
				<time>2026-04-25T08:38:47Z</time>
			</trkpt>
			<trkpt lat="59.08437204360962" lon="30.002355337142944">
				<ele>108.29000091552734</ele>
				<time>2026-04-25T08:39:08Z</time>
			</trkpt>
			<trkpt lat="59.08437705039978" lon="30.002588510513306">
				<ele>109.19000244140625</ele>
				<time>2026-04-25T08:39:29Z</time>
			</trkpt>
			<trkpt lat="59.08441436290741" lon="30.00270712375641">
				<ele>109.72000122070312</ele>
				<time>2026-04-25T08:39:45Z</time>
			</trkpt>
			<trkpt lat="59.084434151649475" lon="30.002915740013123">
				<ele>110.47000122070312</ele>
				<time>2026-04-25T08:40:07Z</time>
			</trkpt>
			<trkpt lat="59.084463715553284" lon="30.00299334526062">
				<ele>110.62999725341797</ele>
				<time>2026-04-25T08:40:19Z</time>
			</trkpt>
			<trkpt lat="59.084452629089355" lon="30.00308656692505">
				<ele>110.91999816894531</ele>
				<time>2026-04-25T08:40:47Z</time>
			</trkpt>
			<trkpt lat="59.084431171417236" lon="30.00308656692505">
				<ele>112.0999984741211</ele>
				<time>2026-04-25T08:41:13Z</time>
			</trkpt>
			<trkpt lat="59.08444404602051" lon="30.003076910972595">
				<ele>111.3499984741211</ele>
				<time>2026-04-25T08:41:42Z</time>
			</trkpt>
			<trkpt lat="59.08448326587677" lon="30.00309658050537">
				<ele>109.9800033569336</ele>
				<time>2026-04-25T08:42:12Z</time>
			</trkpt>
			<trkpt lat="59.08448886871338" lon="30.003183960914612">
				<ele>110.75</ele>
				<time>2026-04-25T08:42:37Z</time>
			</trkpt>
			<trkpt lat="59.0845148563385" lon="30.003379940986633">
				<ele>111.29000091552734</ele>
				<time>2026-04-25T08:42:59Z</time>
			</trkpt>
			<trkpt lat="59.08451461791992" lon="30.003388166427612">
				<ele>111.3499984741211</ele>
				<time>2026-04-25T08:43:00Z</time>
			</trkpt>
			<trkpt lat="59.08452785015106" lon="30.00360643863678">
				<ele>111.9800033569336</ele>
				<time>2026-04-25T08:43:24Z</time>
			</trkpt>
			<trkpt lat="59.08455038070679" lon="30.003727436065674">
				<ele>112.7300033569336</ele>
				<time>2026-04-25T08:43:45Z</time>
			</trkpt>
			<trkpt lat="59.084558606147766" lon="30.00385546684265">
				<ele>113.2699966430664</ele>
				<time>2026-04-25T08:44:06Z</time>
			</trkpt>
			<trkpt lat="59.08455312252045" lon="30.003884434700012">
				<ele>113.23999786376953</ele>
				<time>2026-04-25T08:44:09Z</time>
			</trkpt>
			<trkpt lat="59.08454918861389" lon="30.0039381980896">
				<ele>113.41999816894531</ele>
				<time>2026-04-25T08:44:14Z</time>
			</trkpt>
			<trkpt lat="59.08462345600128" lon="30.00414228439331">
				<ele>114.23999786376953</ele>
				<time>2026-04-25T08:44:37Z</time>
			</trkpt>
			<trkpt lat="59.08462107181549" lon="30.004327416419983">
				<ele>114.7300033569336</ele>
				<time>2026-04-25T08:44:56Z</time>
			</trkpt>
			<trkpt lat="59.08471965789795" lon="30.00441551208496">
				<ele>115.62999725341797</ele>
				<time>2026-04-25T08:45:19Z</time>
			</trkpt>
			<trkpt lat="59.08473062515259" lon="30.004631757736206">
				<ele>116.5199966430664</ele>
				<time>2026-04-25T08:45:39Z</time>
			</trkpt>
			<trkpt lat="59.08476769924164" lon="30.004858016967773">
				<ele>117.30000305175781</ele>
				<time>2026-04-25T08:45:58Z</time>
			</trkpt>
			<trkpt lat="59.08478236198425" lon="30.005075097084045">
				<ele>118.27999877929688</ele>
				<time>2026-04-25T08:46:17Z</time>
			</trkpt>
			<trkpt lat="59.08477294445038" lon="30.005127787590027">
				<ele>118.2300033569336</ele>
				<time>2026-04-25T08:46:21Z</time>
			</trkpt>
			<trkpt lat="59.08474242687225" lon="30.005260229110718">
				<ele>119.05999755859375</ele>
				<time>2026-04-25T08:46:47Z</time>
			</trkpt>
			<trkpt lat="59.084773540496826" lon="30.005303382873535">
				<ele>118.4000015258789</ele>
				<time>2026-04-25T08:47:18Z</time>
			</trkpt>
			<trkpt lat="59.08478021621704" lon="30.00515079498291">
				<ele>117.62000274658203</ele>
				<time>2026-04-25T08:47:43Z</time>
			</trkpt>
			<trkpt lat="59.08477485179901" lon="30.00535821914673">
				<ele>116.63999938964844</ele>
				<time>2026-04-25T08:48:06Z</time>
			</trkpt>
			<trkpt lat="59.08476781845093" lon="30.005403637886047">
				<ele>116.63999938964844</ele>
				<time>2026-04-25T08:48:10Z</time>
			</trkpt>
			<trkpt lat="59.084798097610474" lon="30.0056631565094">
				<ele>116.5</ele>
				<time>2026-04-25T08:48:32Z</time>
			</trkpt>
			<trkpt lat="59.08484506607056" lon="30.005854845046997">
				<ele>115.9800033569336</ele>
				<time>2026-04-25T08:48:51Z</time>
			</trkpt>
			<trkpt lat="59.0848582983017" lon="30.006057739257812">
				<ele>115.30999755859375</ele>
				<time>2026-04-25T08:49:11Z</time>
			</trkpt>
			<trkpt lat="59.08483111858368" lon="30.006163716316223">
				<ele>115.16000366210938</ele>
				<time>2026-04-25T08:49:28Z</time>
			</trkpt>
			<trkpt lat="59.084816217422485" lon="30.006349802017212">
				<ele>114.91999816894531</ele>
				<time>2026-04-25T08:49:53Z</time>
			</trkpt>
			<trkpt lat="59.08483827114105" lon="30.006412267684937">
				<ele>114.47000122070312</ele>
				<time>2026-04-25T08:50:20Z</time>
			</trkpt>
			<trkpt lat="59.0848491191864" lon="30.00638735294342">
				<ele>113.3499984741211</ele>
				<time>2026-04-25T08:50:39Z</time>
			</trkpt>
			<trkpt lat="59.08488750457764" lon="30.006511926651">
				<ele>111.33000183105469</ele>
				<time>2026-04-25T08:51:03Z</time>
			</trkpt>
			<trkpt lat="59.08488976955414" lon="30.00677525997162">
				<ele>110.43000030517578</ele>
				<time>2026-04-25T08:51:24Z</time>
			</trkpt>
			<trkpt lat="59.08489537239075" lon="30.006898283958435">
				<ele>109.80000305175781</ele>
				<time>2026-04-25T08:51:45Z</time>
			</trkpt>
			<trkpt lat="59.08490777015686" lon="30.006965041160583">
				<ele>109.33000183105469</ele>
				<time>2026-04-25T08:52:08Z</time>
			</trkpt>
			<trkpt lat="59.08494794368744" lon="30.00698709487915">
				<ele>107.98999786376953</ele>
				<time>2026-04-25T08:52:34Z</time>
			</trkpt>
			<trkpt lat="59.08500158786774" lon="30.007129907608032">
				<ele>106.0999984741211</ele>
				<time>2026-04-25T08:52:53Z</time>
			</trkpt>
			<trkpt lat="59.08499562740326" lon="30.00737226009369">
				<ele>106.19999694824219</ele>
				<time>2026-04-25T08:53:14Z</time>
			</trkpt>
			<trkpt lat="59.08500158786774" lon="30.007596135139465">
				<ele>106.51000213623047</ele>
				<time>2026-04-25T08:53:35Z</time>
			</trkpt>
			<trkpt lat="59.08507251739502" lon="30.007681846618652">
				<ele>107.1500015258789</ele>
				<time>2026-04-25T08:53:56Z</time>
			</trkpt>
			<trkpt lat="59.0850772857666" lon="30.007851243019104">
				<ele>107.66999816894531</ele>
				<time>2026-04-25T08:54:14Z</time>
			</trkpt>
			<trkpt lat="59.08509969711304" lon="30.008158922195435">
				<ele>108.86000061035156</ele>
				<time>2026-04-25T08:54:36Z</time>
			</trkpt>
			<trkpt lat="59.08508336544037" lon="30.008389592170715">
				<ele>109.7699966430664</ele>
				<time>2026-04-25T08:54:55Z</time>
			</trkpt>
			<trkpt lat="59.085119009017944" lon="30.008580803871155">
				<ele>110.26000213623047</ele>
				<time>2026-04-25T08:55:18Z</time>
			</trkpt>
			<trkpt lat="59.08510732650757" lon="30.008676528930664">
				<ele>110.61000061035156</ele>
				<time>2026-04-25T08:55:46Z</time>
			</trkpt>
			<trkpt lat="59.08509027957916" lon="30.008732318878174">
				<ele>110.62000274658203</ele>
				<time>2026-04-25T08:55:51Z</time>
			</trkpt>
			<trkpt lat="59.085073947906494" lon="30.008843660354614">
				<ele>110.8499984741211</ele>
				<time>2026-04-25T08:56:07Z</time>
			</trkpt>
			<trkpt lat="59.08518409729004" lon="30.00862693786621">
				<ele>110.05000305175781</ele>
				<time>2026-04-25T08:56:36Z</time>
			</trkpt>
			<trkpt lat="59.085201382637024" lon="30.008622646331787">
				<ele>109.8499984741211</ele>
				<time>2026-04-25T08:56:48Z</time>
			</trkpt>
			<trkpt lat="59.085211396217346" lon="30.00860571861267">
				<ele>108.43000030517578</ele>
				<time>2026-04-25T08:56:53Z</time>
			</trkpt>
			<trkpt lat="59.085229992866516" lon="30.00875496864319">
				<ele>106.13999938964844</ele>
				<time>2026-04-25T08:57:15Z</time>
			</trkpt>
			<trkpt lat="59.0852370262146" lon="30.008926272392273">
				<ele>105.2699966430664</ele>
				<time>2026-04-25T08:57:36Z</time>
			</trkpt>
			<trkpt lat="59.08521282672882" lon="30.00917649269104">
				<ele>104.76000213623047</ele>
				<time>2026-04-25T08:57:57Z</time>
			</trkpt>
			<trkpt lat="59.08518350124359" lon="30.009363174438477">
				<ele>104.88999938964844</ele>
				<time>2026-04-25T08:58:19Z</time>
			</trkpt>
			<trkpt lat="59.08518624305725" lon="30.009491443634033">
				<ele>104.80999755859375</ele>
				<time>2026-04-25T08:58:37Z</time>
			</trkpt>
			<trkpt lat="59.08522439002991" lon="30.009666442871094">
				<ele>104.58000183105469</ele>
				<time>2026-04-25T08:59:00Z</time>
			</trkpt>
			<trkpt lat="59.085293889045715" lon="30.009790897369385">
				<ele>104.58000183105469</ele>
				<time>2026-04-25T08:59:21Z</time>
			</trkpt>
			<trkpt lat="59.08538341522217" lon="30.009881019592285">
				<ele>104.6500015258789</ele>
				<time>2026-04-25T08:59:41Z</time>
			</trkpt>
			<trkpt lat="59.08542799949646" lon="30.010006427764893">
				<ele>105.05999755859375</ele>
				<time>2026-04-25T08:59:59Z</time>
			</trkpt>
			<trkpt lat="59.08541297912598" lon="30.010230541229248">
				<ele>105.62000274658203</ele>
				<time>2026-04-25T09:00:20Z</time>
			</trkpt>
			<trkpt lat="59.08537948131561" lon="30.010465264320374">
				<ele>105.30999755859375</ele>
				<time>2026-04-25T09:00:43Z</time>
			</trkpt>
			<trkpt lat="59.0853716135025" lon="30.010468363761902">
				<ele>104.05000305175781</ele>
				<time>2026-04-25T09:00:50Z</time>
			</trkpt>
			<trkpt lat="59.08536899089813" lon="30.010432720184326">
				<ele>103.91000366210938</ele>
				<time>2026-04-25T09:01:02Z</time>
			</trkpt>
			<trkpt lat="59.08542060852051" lon="30.010531187057495">
				<ele>101.80000305175781</ele>
				<time>2026-04-25T09:01:28Z</time>
			</trkpt>
			<trkpt lat="59.085463881492615" lon="30.010595321655273">
				<ele>100.79000091552734</ele>
				<time>2026-04-25T09:01:50Z</time>
			</trkpt>
			<trkpt lat="59.085482478141785" lon="30.01069939136505">
				<ele>100.47000122070312</ele>
				<time>2026-04-25T09:02:08Z</time>
			</trkpt>
			<trkpt lat="59.08545541763306" lon="30.010703802108765">
				<ele>100.95999908447266</ele>
				<time>2026-04-25T09:02:14Z</time>
			</trkpt>
			<trkpt lat="59.08542990684509" lon="30.010899662971497">
				<ele>100.80000305175781</ele>
				<time>2026-04-25T09:02:36Z</time>
			</trkpt>
			<trkpt lat="59.08540070056915" lon="30.010884881019592">
				<ele>99.45999908447266</ele>
				<time>2026-04-25T09:02:42Z</time>
			</trkpt>
			<trkpt lat="59.08543038368225" lon="30.010839462280273">
				<ele>99.12000274658203</ele>
				<time>2026-04-25T09:02:45Z</time>
			</trkpt>
			<trkpt lat="59.08546805381775" lon="30.010837078094482">
				<ele>98.02999877929688</ele>
				<time>2026-04-25T09:03:04Z</time>
			</trkpt>
			<trkpt lat="59.08544063568115" lon="30.010955333709717">
				<ele>97.66000366210938</ele>
				<time>2026-04-25T09:03:25Z</time>
			</trkpt>
			<trkpt lat="59.08546698093414" lon="30.01106584072113">
				<ele>97.9800033569336</ele>
				<time>2026-04-25T09:03:43Z</time>
			</trkpt>
			<trkpt lat="59.08548867702484" lon="30.011245846748352">
				<ele>98.22000122070312</ele>
				<time>2026-04-25T09:04:03Z</time>
			</trkpt>
			<trkpt lat="59.08547604084015" lon="30.01150929927826">
				<ele>98.44999694824219</ele>
				<time>2026-04-25T09:04:28Z</time>
			</trkpt>
			<trkpt lat="59.08547580242157" lon="30.011747002601624">
				<ele>98.69000244140625</ele>
				<time>2026-04-25T09:04:49Z</time>
			</trkpt>
			<trkpt lat="59.08553063869476" lon="30.01192808151245">
				<ele>99.41999816894531</ele>
				<time>2026-04-25T09:05:12Z</time>
			</trkpt>
			<trkpt lat="59.08555245399475" lon="30.012094855308533">
				<ele>100.06999969482422</ele>
				<time>2026-04-25T09:05:31Z</time>
			</trkpt>
			<trkpt lat="59.08555042743683" lon="30.012185215950012">
				<ele>100.47000122070312</ele>
				<time>2026-04-25T09:05:56Z</time>
			</trkpt>
			<trkpt lat="59.08553886413574" lon="30.012156128883362">
				<ele>100.16999816894531</ele>
				<time>2026-04-25T09:06:24Z</time>
			</trkpt>
			<trkpt lat="59.08560907840729" lon="30.01218819618225">
				<ele>96.95999908447266</ele>
				<time>2026-04-25T09:06:50Z</time>
			</trkpt>
			<trkpt lat="59.08568799495697" lon="30.012338876724243">
				<ele>94.56999969482422</ele>
				<time>2026-04-25T09:07:12Z</time>
			</trkpt>
			<trkpt lat="59.085740089416504" lon="30.012459635734558">
				<ele>93.33999633789062</ele>
				<time>2026-04-25T09:07:31Z</time>
			</trkpt>
			<trkpt lat="59.0857230424881" lon="30.012611508369446">
				<ele>92.58999633789062</ele>
				<time>2026-04-25T09:07:49Z</time>
			</trkpt>
			<trkpt lat="59.08568346500397" lon="30.01274573802948">
				<ele>92.4800033569336</ele>
				<time>2026-04-25T09:08:08Z</time>
			</trkpt>
			<trkpt lat="59.085665702819824" lon="30.012949228286743">
				<ele>92.56999969482422</ele>
				<time>2026-04-25T09:08:28Z</time>
			</trkpt>
			<trkpt lat="59.08565330505371" lon="30.01309907436371">
				<ele>92.95999908447266</ele>
				<time>2026-04-25T09:08:48Z</time>
			</trkpt>
			<trkpt lat="59.085606813430786" lon="30.01315677165985">
				<ele>92.4800033569336</ele>
				<time>2026-04-25T09:09:16Z</time>
			</trkpt>
			<trkpt lat="59.08563208580017" lon="30.01308786869049">
				<ele>92.88999938964844</ele>
				<time>2026-04-25T09:09:42Z</time>
			</trkpt>
			<trkpt lat="59.08567559719086" lon="30.013134121894836">
				<ele>93.08999633789062</ele>
				<time>2026-04-25T09:10:08Z</time>
			</trkpt>
			<trkpt lat="59.085665464401245" lon="30.01319921016693">
				<ele>93.11000061035156</ele>
				<time>2026-04-25T09:10:41Z</time>
			</trkpt>
			<trkpt lat="59.08568024635315" lon="30.01319944858551">
				<ele>93.30000305175781</ele>
				<time>2026-04-25T09:11:09Z</time>
			</trkpt>
			<trkpt lat="59.085633397102356" lon="30.013213515281677">
				<ele>93.70999908447266</ele>
				<time>2026-04-25T09:11:42Z</time>
			</trkpt>
			<trkpt lat="59.0856477022171" lon="30.01319670677185">
				<ele>93.44000244140625</ele>
				<time>2026-04-25T09:12:13Z</time>
			</trkpt>
			<trkpt lat="59.085612297058105" lon="30.01323890686035">
				<ele>93.63999938964844</ele>
				<time>2026-04-25T09:12:44Z</time>
			</trkpt>
			<trkpt lat="59.08559739589691" lon="30.01321506500244">
				<ele>93.43000030517578</ele>
				<time>2026-04-25T09:13:11Z</time>
			</trkpt>
			<trkpt lat="59.08557081222534" lon="30.013210773468018">
				<ele>92.55000305175781</ele>
				<time>2026-04-25T09:13:40Z</time>
			</trkpt>
			<trkpt lat="59.08557057380676" lon="30.01318621635437">
				<ele>91.29000091552734</ele>
				<time>2026-04-25T09:14:12Z</time>
			</trkpt>
			<trkpt lat="59.08562135696411" lon="30.01316547393799">
				<ele>90.0199966430664</ele>
				<time>2026-04-25T09:14:40Z</time>
			</trkpt>
			<trkpt lat="59.08562445640564" lon="30.013211846351624">
				<ele>89.66000366210938</ele>
				<time>2026-04-25T09:15:01Z</time>
			</trkpt>
			<trkpt lat="59.08566224575043" lon="30.013115167617798">
				<ele>88.62999725341797</ele>
				<time>2026-04-25T09:15:29Z</time>
			</trkpt>
			<trkpt lat="59.08569896221161" lon="30.013219714164734">
				<ele>86.97000122070312</ele>
				<time>2026-04-25T09:15:56Z</time>
			</trkpt>
			<trkpt lat="59.085752725601196" lon="30.013380527496338">
				<ele>86.0999984741211</ele>
				<time>2026-04-25T09:16:15Z</time>
			</trkpt>
			<trkpt lat="59.085798501968384" lon="30.01350998878479">
				<ele>86.36000061035156</ele>
				<time>2026-04-25T09:16:34Z</time>
			</trkpt>
			<trkpt lat="59.085816979408264" lon="30.013757586479187">
				<ele>86.83999633789062</ele>
				<time>2026-04-25T09:16:58Z</time>
			</trkpt>
			<trkpt lat="59.085808992385864" lon="30.01399254798889">
				<ele>87.72000122070312</ele>
				<time>2026-04-25T09:17:21Z</time>
			</trkpt>
			<trkpt lat="59.08582246303558" lon="30.01422905921936">
				<ele>88.62999725341797</ele>
				<time>2026-04-25T09:17:44Z</time>
			</trkpt>
			<trkpt lat="59.085784792900085" lon="30.014345169067383">
				<ele>88.72000122070312</ele>
				<time>2026-04-25T09:18:06Z</time>
			</trkpt>
			<trkpt lat="59.085787296295166" lon="30.014389514923096">
				<ele>89.75</ele>
				<time>2026-04-25T09:18:30Z</time>
			</trkpt>
			<trkpt lat="59.085777163505554" lon="30.014455318450928">
				<ele>90.52999877929688</ele>
				<time>2026-04-25T09:18:58Z</time>
			</trkpt>
			<trkpt lat="59.08577239513397" lon="30.014426708221436">
				<ele>90.48999786376953</ele>
				<time>2026-04-25T09:19:27Z</time>
			</trkpt>
			<trkpt lat="59.08579063415527" lon="30.01441788673401">
				<ele>89.45999908447266</ele>
				<time>2026-04-25T09:19:56Z</time>
			</trkpt>
			<trkpt lat="59.085808515548706" lon="30.014382004737854">
				<ele>89.45999908447266</ele>
				<time>2026-04-25T09:20:02Z</time>
			</trkpt>
			<trkpt lat="59.08590567111969" lon="30.014197826385498">
				<ele>88.61000061035156</ele>
				<time>2026-04-25T09:20:23Z</time>
			</trkpt>
			<trkpt lat="59.08603072166443" lon="30.014179348945618">
				<ele>87.87000274658203</ele>
				<time>2026-04-25T09:20:44Z</time>
			</trkpt>
			<trkpt lat="59.08607876300812" lon="30.014097571372986">
				<ele>87.94000244140625</ele>
				<time>2026-04-25T09:21:02Z</time>
			</trkpt>
			<trkpt lat="59.086196541786194" lon="30.01410150527954">
				<ele>88.2699966430664</ele>
				<time>2026-04-25T09:21:24Z</time>
			</trkpt>
			<trkpt lat="59.08627963066101" lon="30.01416289806366">
				<ele>89.22000122070312</ele>
				<time>2026-04-25T09:21:44Z</time>
			</trkpt>
			<trkpt lat="59.08631074428558" lon="30.014163613319397">
				<ele>89.51000213623047</ele>
				<time>2026-04-25T09:21:50Z</time>
			</trkpt>
			<trkpt lat="59.086371183395386" lon="30.01412320137024">
				<ele>90.11000061035156</ele>
				<time>2026-04-25T09:22:01Z</time>
			</trkpt>
			<trkpt lat="59.086440682411194" lon="30.014140367507935">
				<ele>89.12999725341797</ele>
				<time>2026-04-25T09:22:16Z</time>
			</trkpt>
			<trkpt lat="59.086464166641235" lon="30.014154314994812">
				<ele>89.12999725341797</ele>
				<time>2026-04-25T09:22:22Z</time>
			</trkpt>
			<trkpt lat="59.086477637290955" lon="30.014148354530334">
				<ele>90.43000030517578</ele>
				<time>2026-04-25T09:22:26Z</time>
			</trkpt>
			<trkpt lat="59.08648443222046" lon="30.014214038848877">
				<ele>89.77999877929688</ele>
				<time>2026-04-25T09:22:54Z</time>
			</trkpt>
			<trkpt lat="59.08652412891388" lon="30.014137983322144">
				<ele>89.88999938964844</ele>
				<time>2026-04-25T09:23:20Z</time>
			</trkpt>
			<trkpt lat="59.0865912437439" lon="30.014050483703613">
				<ele>90.05000305175781</ele>
				<time>2026-04-25T09:23:36Z</time>
			</trkpt>
			<trkpt lat="59.086655616760254" lon="30.01401662826538">
				<ele>90.48999786376953</ele>
				<time>2026-04-25T09:23:56Z</time>
			</trkpt>
			<trkpt lat="59.0867280960083" lon="30.013993501663208">
				<ele>91.44000244140625</ele>
				<time>2026-04-25T09:24:19Z</time>
			</trkpt>
			<trkpt lat="59.08680522441864" lon="30.013916492462158">
				<ele>92.19999694824219</ele>
				<time>2026-04-25T09:24:44Z</time>
			</trkpt>
			<trkpt lat="59.08692944049835" lon="30.01389789581299">
				<ele>92.58000183105469</ele>
				<time>2026-04-25T09:25:07Z</time>
			</trkpt>
			<trkpt lat="59.086994767189026" lon="30.013941526412964">
				<ele>92.83000183105469</ele>
				<time>2026-04-25T09:25:29Z</time>
			</trkpt>
			<trkpt lat="59.0869882106781" lon="30.013938069343567">
				<ele>92.30000305175781</ele>
				<time>2026-04-25T09:25:58Z</time>
			</trkpt>
			<trkpt lat="59.087008476257324" lon="30.013890266418457">
				<ele>90.08000183105469</ele>
				<time>2026-04-25T09:26:18Z</time>
			</trkpt>
			<trkpt lat="59.08698642253876" lon="30.013779759407043">
				<ele>87.43000030517578</ele>
				<time>2026-04-25T09:26:37Z</time>
			</trkpt>
			<trkpt lat="59.08698010444641" lon="30.013692021369934">
				<ele>86.72000122070312</ele>
				<time>2026-04-25T09:26:55Z</time>
			</trkpt>
			<trkpt lat="59.08708167076111" lon="30.013504028320312">
				<ele>86.77999877929688</ele>
				<time>2026-04-25T09:27:16Z</time>
			</trkpt>
			<trkpt lat="59.08706188201904" lon="30.013310074806213">
				<ele>86.80000305175781</ele>
				<time>2026-04-25T09:27:36Z</time>
			</trkpt>
			<trkpt lat="59.087047815322876" lon="30.01311945915222">
				<ele>88.25</ele>
				<time>2026-04-25T09:27:55Z</time>
			</trkpt>
			<trkpt lat="59.087026834487915" lon="30.01289701461792">
				<ele>89.41000366210938</ele>
				<time>2026-04-25T09:28:15Z</time>
			</trkpt>
			<trkpt lat="59.08697056770325" lon="30.012757182121277">
				<ele>90.19000244140625</ele>
				<time>2026-04-25T09:28:32Z</time>
			</trkpt>
			<trkpt lat="59.08700227737427" lon="30.01254379749298">
				<ele>91.44999694824219</ele>
				<time>2026-04-25T09:28:52Z</time>
			</trkpt>
			<trkpt lat="59.0870246887207" lon="30.01238465309143">
				<ele>92.04000091552734</ele>
				<time>2026-04-25T09:29:09Z</time>
			</trkpt>
			<trkpt lat="59.087021470069885" lon="30.01236355304718">
				<ele>92.23999786376953</ele>
				<time>2026-04-25T09:29:12Z</time>
			</trkpt>
			<trkpt lat="59.08700978755951" lon="30.01219868659973">
				<ele>93.38999938964844</ele>
				<time>2026-04-25T09:29:31Z</time>
			</trkpt>
			<trkpt lat="59.08697783946991" lon="30.012076258659363">
				<ele>93.2699966430664</ele>
				<time>2026-04-25T09:29:51Z</time>
			</trkpt>
			<trkpt lat="59.08697712421417" lon="30.012091159820557">
				<ele>93.62000274658203</ele>
				<time>2026-04-25T09:30:08Z</time>
			</trkpt>
			<trkpt lat="59.08708333969116" lon="30.012115716934204">
				<ele>92.0</ele>
				<time>2026-04-25T09:30:20Z</time>
			</trkpt>
			<trkpt lat="59.08703017234802" lon="30.012102007865906">
				<ele>90.8499984741211</ele>
				<time>2026-04-25T09:30:45Z</time>
			</trkpt>
			<trkpt lat="59.087005376815796" lon="30.012145400047302">
				<ele>90.05999755859375</ele>
				<time>2026-04-25T09:30:50Z</time>
			</trkpt>
			<trkpt lat="59.0869482755661" lon="30.01216459274292">
				<ele>88.91000366210938</ele>
				<time>2026-04-25T09:31:05Z</time>
			</trkpt>
			<trkpt lat="59.08688032627106" lon="30.012157559394836">
				<ele>88.18000030517578</ele>
				<time>2026-04-25T09:31:26Z</time>
			</trkpt>
			<trkpt lat="59.08685612678528" lon="30.01204741001129">
				<ele>87.98999786376953</ele>
				<time>2026-04-25T09:31:45Z</time>
			</trkpt>
			<trkpt lat="59.08689260482788" lon="30.01182723045349">
				<ele>87.7300033569336</ele>
				<time>2026-04-25T09:32:06Z</time>
			</trkpt>
			<trkpt lat="59.086899638175964" lon="30.011680126190186">
				<ele>88.19000244140625</ele>
				<time>2026-04-25T09:32:27Z</time>
			</trkpt>
			<trkpt lat="59.086931228637695" lon="30.011440634727478">
				<ele>88.98999786376953</ele>
				<time>2026-04-25T09:32:48Z</time>
			</trkpt>
			<trkpt lat="59.08693444728851" lon="30.01117479801178">
				<ele>89.4800033569336</ele>
				<time>2026-04-25T09:33:08Z</time>
			</trkpt>
			<trkpt lat="59.0869323015213" lon="30.011115193367004">
				<ele>89.52999877929688</ele>
				<time>2026-04-25T09:33:13Z</time>
			</trkpt>
			<trkpt lat="59.086965799331665" lon="30.010789275169373">
				<ele>90.30000305175781</ele>
				<time>2026-04-25T09:33:36Z</time>
			</trkpt>
			<trkpt lat="59.08696472644806" lon="30.010565400123596">
				<ele>90.98999786376953</ele>
				<time>2026-04-25T09:33:54Z</time>
			</trkpt>
			<trkpt lat="59.08692455291748" lon="30.010316133499146">
				<ele>92.70999908447266</ele>
				<time>2026-04-25T09:34:14Z</time>
			</trkpt>
			<trkpt lat="59.08692264556885" lon="30.010306239128113">
				<ele>92.75</ele>
				<time>2026-04-25T09:34:15Z</time>
			</trkpt>
			<trkpt lat="59.08689630031586" lon="30.010162234306335">
				<ele>94.80999755859375</ele>
				<time>2026-04-25T09:34:32Z</time>
			</trkpt>
			<trkpt lat="59.08700895309448" lon="30.010252952575684">
				<ele>96.58999633789062</ele>
				<time>2026-04-25T09:34:54Z</time>
			</trkpt>
			<trkpt lat="59.08697056770325" lon="30.010212302207947">
				<ele>97.56999969482422</ele>
				<time>2026-04-25T09:35:17Z</time>
			</trkpt>
			<trkpt lat="59.08689022064209" lon="30.01024293899536">
				<ele>97.25</ele>
				<time>2026-04-25T09:35:45Z</time>
			</trkpt>
			<trkpt lat="59.086872696876526" lon="30.009992837905884">
				<ele>97.18000030517578</ele>
				<time>2026-04-25T09:36:10Z</time>
			</trkpt>
			<trkpt lat="59.08684730529785" lon="30.009878754615784">
				<ele>97.94000244140625</ele>
				<time>2026-04-25T09:36:36Z</time>
			</trkpt>
			<trkpt lat="59.08685374259949" lon="30.009693264961243">
				<ele>99.23999786376953</ele>
				<time>2026-04-25T09:36:57Z</time>
			</trkpt>
			<trkpt lat="59.08689212799072" lon="30.00944447517395">
				<ele>99.77999877929688</ele>
				<time>2026-04-25T09:37:21Z</time>
			</trkpt>
			<trkpt lat="59.08685791492462" lon="30.009174585342407">
				<ele>100.58000183105469</ele>
				<time>2026-04-25T09:37:42Z</time>
			</trkpt>
			<trkpt lat="59.086809158325195" lon="30.009055495262146">
				<ele>101.51000213623047</ele>
				<time>2026-04-25T09:38:04Z</time>
			</trkpt>
			<trkpt lat="59.08681309223175" lon="30.009015917778015">
				<ele>102.33999633789062</ele>
				<time>2026-04-25T09:38:23Z</time>
			</trkpt>
			<trkpt lat="59.08681857585907" lon="30.0090149641037">
				<ele>102.83999633789062</ele>
				<time>2026-04-25T09:38:47Z</time>
			</trkpt>
			<trkpt lat="59.08682978153229" lon="30.00902557373047">
				<ele>103.26000213623047</ele>
				<time>2026-04-25T09:39:11Z</time>
			</trkpt>
			<trkpt lat="59.08690965175629" lon="30.008886575698853">
				<ele>103.75</ele>
				<time>2026-04-25T09:39:32Z</time>
			</trkpt>
			<trkpt lat="59.08690571784973" lon="30.008569598197937">
				<ele>104.12000274658203</ele>
				<time>2026-04-25T09:39:55Z</time>
			</trkpt>
			<trkpt lat="59.08690106868744" lon="30.008482575416565">
				<ele>104.33000183105469</ele>
				<time>2026-04-25T09:40:02Z</time>
			</trkpt>
			<trkpt lat="59.08687651157379" lon="30.008363723754883">
				<ele>104.56999969482422</ele>
				<time>2026-04-25T09:40:16Z</time>
			</trkpt>
			<trkpt lat="59.08685123920441" lon="30.008183479309082">
				<ele>105.13999938964844</ele>
				<time>2026-04-25T09:40:38Z</time>
			</trkpt>
			<trkpt lat="59.08679759502411" lon="30.008044719696045">
				<ele>105.91999816894531</ele>
				<time>2026-04-25T09:41:01Z</time>
			</trkpt>
			<trkpt lat="59.0867999792099" lon="30.007931351661682">
				<ele>106.4800033569336</ele>
				<time>2026-04-25T09:41:26Z</time>
			</trkpt>
			<trkpt lat="59.08680987358093" lon="30.007915019989014">
				<ele>106.48999786376953</ele>
				<time>2026-04-25T09:41:29Z</time>
			</trkpt>
			<trkpt lat="59.0867702960968" lon="30.007928013801575">
				<ele>106.52999877929688</ele>
				<time>2026-04-25T09:41:58Z</time>
			</trkpt>
			<trkpt lat="59.08672881126404" lon="30.00797212123871">
				<ele>105.72000122070312</ele>
				<time>2026-04-25T09:42:30Z</time>
			</trkpt>
			<trkpt lat="59.08674883842468" lon="30.007991790771484">
				<ele>104.41999816894531</ele>
				<time>2026-04-25T09:42:55Z</time>
			</trkpt>
			<trkpt lat="59.086718916893005" lon="30.007762789726257">
				<ele>102.30000305175781</ele>
				<time>2026-04-25T09:43:17Z</time>
			</trkpt>
			<trkpt lat="59.086711168289185" lon="30.00749135017395">
				<ele>101.80000305175781</ele>
				<time>2026-04-25T09:43:39Z</time>
			</trkpt>
			<trkpt lat="59.086716175079346" lon="30.007227182388306">
				<ele>102.0</ele>
				<time>2026-04-25T09:44:00Z</time>
			</trkpt>
			<trkpt lat="59.08671820163727" lon="30.007119178771973">
				<ele>102.1500015258789</ele>
				<time>2026-04-25T09:44:07Z</time>
			</trkpt>
			<trkpt lat="59.08668124675751" lon="30.006956815719604">
				<ele>102.8499984741211</ele>
				<time>2026-04-25T09:44:32Z</time>
			</trkpt>
			<trkpt lat="59.086671590805054" lon="30.006872177124023">
				<ele>102.76000213623047</ele>
				<time>2026-04-25T09:44:57Z</time>
			</trkpt>
			<trkpt lat="59.08668661117554" lon="30.00674307346344">
				<ele>103.37999725341797</ele>
				<time>2026-04-25T09:45:18Z</time>
			</trkpt>
			<trkpt lat="59.08666396141052" lon="30.006600379943848">
				<ele>103.69000244140625</ele>
				<time>2026-04-25T09:45:39Z</time>
			</trkpt>
			<trkpt lat="59.086633801460266" lon="30.006397008895874">
				<ele>103.93000030517578</ele>
				<time>2026-04-25T09:45:58Z</time>
			</trkpt>
			<trkpt lat="59.0866357088089" lon="30.00627028942108">
				<ele>104.83999633789062</ele>
				<time>2026-04-25T09:46:25Z</time>
			</trkpt>
			<trkpt lat="59.086597084999084" lon="30.00630033016205">
				<ele>104.0</ele>
				<time>2026-04-25T09:46:51Z</time>
			</trkpt>
			<trkpt lat="59.086586236953735" lon="30.006278157234192">
				<ele>103.11000061035156</ele>
				<time>2026-04-25T09:47:17Z</time>
			</trkpt>
			<trkpt lat="59.08656883239746" lon="30.00610375404358">
				<ele>101.16999816894531</ele>
				<time>2026-04-25T09:47:38Z</time>
			</trkpt>
			<trkpt lat="59.086565136909485" lon="30.005913615226746">
				<ele>100.97000122070312</ele>
				<time>2026-04-25T09:47:59Z</time>
			</trkpt>
			<trkpt lat="59.086575984954834" lon="30.005719304084778">
				<ele>100.62000274658203</ele>
				<time>2026-04-25T09:48:18Z</time>
			</trkpt>
			<trkpt lat="59.086567401885986" lon="30.005479097366333">
				<ele>100.30999755859375</ele>
				<time>2026-04-25T09:48:38Z</time>
			</trkpt>
			<trkpt lat="59.086541175842285" lon="30.005363941192627">
				<ele>100.45999908447266</ele>
				<time>2026-04-25T09:48:57Z</time>
			</trkpt>
			<trkpt lat="59.08656454086304" lon="30.005298256874084">
				<ele>99.26000213623047</ele>
				<time>2026-04-25T09:49:22Z</time>
			</trkpt>
			<trkpt lat="59.08658194541931" lon="30.00533401966095">
				<ele>98.48999786376953</ele>
				<time>2026-04-25T09:49:51Z</time>
			</trkpt>
			<trkpt lat="59.08661592006683" lon="30.005412697792053">
				<ele>97.72000122070312</ele>
				<time>2026-04-25T09:50:13Z</time>
			</trkpt>
			<trkpt lat="59.08663499355316" lon="30.005451679229736">
				<ele>97.29000091552734</ele>
				<time>2026-04-25T09:50:43Z</time>
			</trkpt>
			<trkpt lat="59.0866619348526" lon="30.005419492721558">
				<ele>94.05000305175781</ele>
				<time>2026-04-25T09:50:51Z</time>
			</trkpt>
			<trkpt lat="59.08666408061981" lon="30.005416750907898">
				<ele>93.97000122070312</ele>
				<time>2026-04-25T09:50:52Z</time>
			</trkpt>
			<trkpt lat="59.08666789531708" lon="30.005407691001892">
				<ele>97.0199966430664</ele>
				<time>2026-04-25T09:50:55Z</time>
			</trkpt>
			<trkpt lat="59.086670875549316" lon="30.00540316104889">
				<ele>96.66000366210938</ele>
				<time>2026-04-25T09:50:57Z</time>
			</trkpt>
			<trkpt lat="59.08667242527008" lon="30.00537633895874">
				<ele>98.0</ele>
				<time>2026-04-25T09:50:59Z</time>
			</trkpt>
			<trkpt lat="59.086612939834595" lon="30.00539469718933">
				<ele>98.33999633789062</ele>
				<time>2026-04-25T09:51:31Z</time>
			</trkpt>
			<trkpt lat="59.086604595184326" lon="30.00541114807129">
				<ele>98.12999725341797</ele>
				<time>2026-04-25T09:51:56Z</time>
			</trkpt>
			<trkpt lat="59.08659815788269" lon="30.005386471748352">
				<ele>99.11000061035156</ele>
				<time>2026-04-25T09:52:36Z</time>
			</trkpt>
			<trkpt lat="59.08661103248596" lon="30.00539231300354">
				<ele>102.25</ele>
				<time>2026-04-25T09:53:18Z</time>
			</trkpt>
			<trkpt lat="59.086639642715454" lon="30.00542151927948">
				<ele>105.33999633789062</ele>
				<time>2026-04-25T09:54:03Z</time>
			</trkpt>
			<trkpt lat="59.08663356304169" lon="30.005404233932495">
				<ele>108.33000183105469</ele>
				<time>2026-04-25T09:54:38Z</time>
			</trkpt>
			<trkpt lat="59.08664548397064" lon="30.005351901054382">
				<ele>110.98999786376953</ele>
				<time>2026-04-25T09:55:11Z</time>
			</trkpt>
			<trkpt lat="59.08665108680725" lon="30.005383729934692">
				<ele>113.41000366210938</ele>
				<time>2026-04-25T09:55:57Z</time>
			</trkpt>
			<trkpt lat="59.086681842803955" lon="30.005406141281128">
				<ele>114.01000213623047</ele>
				<time>2026-04-25T09:56:28Z</time>
			</trkpt>
			<trkpt lat="59.08669936656952" lon="30.005415081977844">
				<ele>115.0</ele>
				<time>2026-04-25T09:56:40Z</time>
			</trkpt>
			<trkpt lat="59.086679339408875" lon="30.00531566143036">
				<ele>112.91000366210938</ele>
				<time>2026-04-25T09:57:04Z</time>
			</trkpt>
			<trkpt lat="59.08677959442139" lon="30.005342721939087">
				<ele>111.4800033569336</ele>
				<time>2026-04-25T09:57:19Z</time>
			</trkpt>
			<trkpt lat="59.0868946313858" lon="30.005334615707397">
				<ele>109.9000015258789</ele>
				<time>2026-04-25T09:57:39Z</time>
			</trkpt>
			<trkpt lat="59.086968660354614" lon="30.005313277244568">
				<ele>109.31999969482422</ele>
				<time>2026-04-25T09:58:00Z</time>
			</trkpt>
			<trkpt lat="59.08709275722504" lon="30.005335330963135">
				<ele>108.33999633789062</ele>
				<time>2026-04-25T09:58:22Z</time>
			</trkpt>
			<trkpt lat="59.08715546131134" lon="30.00541388988495">
				<ele>108.5999984741211</ele>
				<time>2026-04-25T09:58:42Z</time>
			</trkpt>
			<trkpt lat="59.08725047111511" lon="30.005480527877808">
				<ele>108.02999877929688</ele>
				<time>2026-04-25T09:59:03Z</time>
			</trkpt>
			<trkpt lat="59.087358832359314" lon="30.005507826805115">
				<ele>108.23999786376953</ele>
				<time>2026-04-25T09:59:28Z</time>
			</trkpt>
			<trkpt lat="59.087321519851685" lon="30.00546133518219">
				<ele>108.08000183105469</ele>
				<time>2026-04-25T09:59:54Z</time>
			</trkpt>
			<trkpt lat="59.087331891059875" lon="30.00545835494995">
				<ele>108.62000274658203</ele>
				<time>2026-04-25T10:00:18Z</time>
			</trkpt>
			<trkpt lat="59.08733665943146" lon="30.0054372549057">
				<ele>109.3499984741211</ele>
				<time>2026-04-25T10:00:46Z</time>
			</trkpt>
			<trkpt lat="59.087339758872986" lon="30.005505323410034">
				<ele>109.26000213623047</ele>
				<time>2026-04-25T10:01:06Z</time>
			</trkpt>
			<trkpt lat="59.08734428882599" lon="30.005532026290894">
				<ele>109.33000183105469</ele>
				<time>2026-04-25T10:01:35Z</time>
			</trkpt>
			<trkpt lat="59.08745086193085" lon="30.005481600761414">
				<ele>107.5199966430664</ele>
				<time>2026-04-25T10:01:59Z</time>
			</trkpt>
			<trkpt lat="59.08756482601166" lon="30.005479335784912">
				<ele>107.16000366210938</ele>
				<time>2026-04-25T10:02:19Z</time>
			</trkpt>
			<trkpt lat="59.08765721321106" lon="30.005518674850464">
				<ele>106.83999633789062</ele>
				<time>2026-04-25T10:02:42Z</time>
			</trkpt>
			<trkpt lat="59.08770787715912" lon="30.00553274154663">
				<ele>106.3499984741211</ele>
				<time>2026-04-25T10:03:05Z</time>
			</trkpt>
			<trkpt lat="59.08780491352081" lon="30.00558352470398">
				<ele>106.01000213623047</ele>
				<time>2026-04-25T10:03:28Z</time>
			</trkpt>
			<trkpt lat="59.08787763118744" lon="30.005593419075012">
				<ele>105.95999908447266</ele>
				<time>2026-04-25T10:03:45Z</time>
			</trkpt>
			<trkpt lat="59.08797037601471" lon="30.005616307258606">
				<ele>105.6500015258789</ele>
				<time>2026-04-25T10:04:05Z</time>
			</trkpt>
			<trkpt lat="59.08802914619446" lon="30.00564444065094">
				<ele>104.93000030517578</ele>
				<time>2026-04-25T10:04:24Z</time>
			</trkpt>
			<trkpt lat="59.08801555633545" lon="30.00572443008423">
				<ele>103.08000183105469</ele>
				<time>2026-04-25T10:04:55Z</time>
			</trkpt>
			<trkpt lat="59.088021993637085" lon="30.005713939666748">
				<ele>99.70999908447266</ele>
				<time>2026-04-25T10:05:16Z</time>
			</trkpt>
			<trkpt lat="59.088022232055664" lon="30.005716562271118">
				<ele>99.4800033569336</ele>
				<time>2026-04-25T10:05:17Z</time>
			</trkpt>
			<trkpt lat="59.088064312934875" lon="30.005838990211487">
				<ele>96.41000366210938</ele>
				<time>2026-04-25T10:05:30Z</time>
			</trkpt>
			<trkpt lat="59.08808791637421" lon="30.006028175354004">
				<ele>94.5</ele>
				<time>2026-04-25T10:05:49Z</time>
			</trkpt>
			<trkpt lat="59.08807361125946" lon="30.006137490272522">
				<ele>93.41999816894531</ele>
				<time>2026-04-25T10:06:10Z</time>
			</trkpt>
			<trkpt lat="59.08806574344635" lon="30.006325840950012">
				<ele>92.79000091552734</ele>
				<time>2026-04-25T10:06:31Z</time>
			</trkpt>
			<trkpt lat="59.08811962604523" lon="30.006545424461365">
				<ele>92.33000183105469</ele>
				<time>2026-04-25T10:06:51Z</time>
			</trkpt>
			<trkpt lat="59.08814549446106" lon="30.006766319274902">
				<ele>91.63999938964844</ele>
				<time>2026-04-25T10:07:12Z</time>
			</trkpt>
			<trkpt lat="59.08811974525452" lon="30.007068276405334">
				<ele>92.55000305175781</ele>
				<time>2026-04-25T10:07:36Z</time>
			</trkpt>
			<trkpt lat="59.08817255496979" lon="30.007202625274658">
				<ele>92.55999755859375</ele>
				<time>2026-04-25T10:07:56Z</time>
			</trkpt>
			<trkpt lat="59.088168025016785" lon="30.007407188415527">
				<ele>92.16000366210938</ele>
				<time>2026-04-25T10:08:19Z</time>
			</trkpt>
			<trkpt lat="59.088119983673096" lon="30.00744605064392">
				<ele>91.3499984741211</ele>
				<time>2026-04-25T10:08:47Z</time>
			</trkpt>
			<trkpt lat="59.08812880516052" lon="30.007516622543335">
				<ele>91.56999969482422</ele>
				<time>2026-04-25T10:09:13Z</time>
			</trkpt>
			<trkpt lat="59.088119983673096" lon="30.007486701011658">
				<ele>91.25</ele>
				<time>2026-04-25T10:09:43Z</time>
			</trkpt>
			<trkpt lat="59.0881587266922" lon="30.007479190826416">
				<ele>91.38999938964844</ele>
				<time>2026-04-25T10:10:10Z</time>
			</trkpt>
			<trkpt lat="59.08815050125122" lon="30.007529854774475">
				<ele>89.97000122070312</ele>
				<time>2026-04-25T10:10:39Z</time>
			</trkpt>
			<trkpt lat="59.088133215904236" lon="30.007715463638306">
				<ele>87.68000030517578</ele>
				<time>2026-04-25T10:11:00Z</time>
			</trkpt>
			<trkpt lat="59.088135957717896" lon="30.007913947105408">
				<ele>86.86000061035156</ele>
				<time>2026-04-25T10:11:21Z</time>
			</trkpt>
			<trkpt lat="59.08815634250641" lon="30.00808095932007">
				<ele>86.5</ele>
				<time>2026-04-25T10:11:40Z</time>
			</trkpt>
			<trkpt lat="59.08817517757416" lon="30.008328676223755">
				<ele>86.06999969482422</ele>
				<time>2026-04-25T10:12:03Z</time>
			</trkpt>
			<trkpt lat="59.08813834190369" lon="30.008591294288635">
				<ele>86.13999938964844</ele>
				<time>2026-04-25T10:12:23Z</time>
			</trkpt>
			<trkpt lat="59.08818185329437" lon="30.00872826576233">
				<ele>85.75</ele>
				<time>2026-04-25T10:12:44Z</time>
			</trkpt>
			<trkpt lat="59.088236808776855" lon="30.008960485458374">
				<ele>85.43000030517578</ele>
				<time>2026-04-25T10:13:05Z</time>
			</trkpt>
			<trkpt lat="59.0882465839386" lon="30.009173035621643">
				<ele>84.98999786376953</ele>
				<time>2026-04-25T10:13:25Z</time>
			</trkpt>
			<trkpt lat="59.08820152282715" lon="30.009220123291016">
				<ele>84.37999725341797</ele>
				<time>2026-04-25T10:13:53Z</time>
			</trkpt>
			<trkpt lat="59.08819818496704" lon="30.009231567382812">
				<ele>84.66000366210938</ele>
				<time>2026-04-25T10:14:19Z</time>
			</trkpt>
			<trkpt lat="59.0881050825119" lon="30.00922679901123">
				<ele>83.0199966430664</ele>
				<time>2026-04-25T10:14:41Z</time>
			</trkpt>
			<trkpt lat="59.0880628824234" lon="30.009281277656555">
				<ele>82.87999725341797</ele>
				<time>2026-04-25T10:15:00Z</time>
			</trkpt>
			<trkpt lat="59.08814239501953" lon="30.009472370147705">
				<ele>82.9000015258789</ele>
				<time>2026-04-25T10:15:20Z</time>
			</trkpt>
			<trkpt lat="59.08819651603699" lon="30.009543299674988">
				<ele>83.12000274658203</ele>
				<time>2026-04-25T10:15:39Z</time>
			</trkpt>
			<trkpt lat="59.08822286128998" lon="30.009695529937744">
				<ele>83.20999908447266</ele>
				<time>2026-04-25T10:16:01Z</time>
			</trkpt>
			<trkpt lat="59.08825182914734" lon="30.00975251197815">
				<ele>83.80999755859375</ele>
				<time>2026-04-25T10:16:20Z</time>
			</trkpt>
			<trkpt lat="59.0882682800293" lon="30.009857058525085">
				<ele>83.7300033569336</ele>
				<time>2026-04-25T10:16:42Z</time>
			</trkpt>
			<trkpt lat="59.08826792240143" lon="30.010003089904785">
				<ele>84.5</ele>
				<time>2026-04-25T10:17:05Z</time>
			</trkpt>
			<trkpt lat="59.088255286216736" lon="30.010135650634766">
				<ele>85.36000061035156</ele>
				<time>2026-04-25T10:17:24Z</time>
			</trkpt>
			<trkpt lat="59.08829367160797" lon="30.0102858543396">
				<ele>85.75</ele>
				<time>2026-04-25T10:17:47Z</time>
			</trkpt>
			<trkpt lat="59.08828341960907" lon="30.010374307632446">
				<ele>86.44999694824219</ele>
				<time>2026-04-25T10:17:56Z</time>
			</trkpt>
			<trkpt lat="59.08828806877136" lon="30.01058566570282">
				<ele>86.77999877929688</ele>
				<time>2026-04-25T10:18:16Z</time>
			</trkpt>
			<trkpt lat="59.088284373283386" lon="30.010756731033325">
				<ele>86.80000305175781</ele>
				<time>2026-04-25T10:18:33Z</time>
			</trkpt>
			<trkpt lat="59.08832359313965" lon="30.010916829109192">
				<ele>87.19000244140625</ele>
				<time>2026-04-25T10:18:52Z</time>
			</trkpt>
			<trkpt lat="59.0883207321167" lon="30.010948538780212">
				<ele>86.76000213623047</ele>
				<time>2026-04-25T10:19:13Z</time>
			</trkpt>
			<trkpt lat="59.08830440044403" lon="30.010985374450684">
				<ele>87.55999755859375</ele>
				<time>2026-04-25T10:19:41Z</time>
			</trkpt>
			<trkpt lat="59.088311433792114" lon="30.01096773147583">
				<ele>88.75</ele>
				<time>2026-04-25T10:20:09Z</time>
			</trkpt>
			<trkpt lat="59.08830809593201" lon="30.01094877719879">
				<ele>87.72000122070312</ele>
				<time>2026-04-25T10:20:19Z</time>
			</trkpt>
			<trkpt lat="59.088314056396484" lon="30.010910630226135">
				<ele>85.16000366210938</ele>
				<time>2026-04-25T10:20:32Z</time>
			</trkpt>
			<trkpt lat="59.0882865190506" lon="30.010865807533264">
				<ele>85.98999786376953</ele>
				<time>2026-04-25T10:20:51Z</time>
			</trkpt>
			<trkpt lat="59.08836114406586" lon="30.010737657546997">
				<ele>83.37999725341797</ele>
				<time>2026-04-25T10:21:18Z</time>
			</trkpt>
			<trkpt lat="59.088351368904114" lon="30.010830521583557">
				<ele>81.05999755859375</ele>
				<time>2026-04-25T10:21:43Z</time>
			</trkpt>
			<trkpt lat="59.08834731578827" lon="30.010929346084595">
				<ele>80.33000183105469</ele>
				<time>2026-04-25T10:22:06Z</time>
			</trkpt>
			<trkpt lat="59.088295578956604" lon="30.01101243495941">
				<ele>78.58000183105469</ele>
				<time>2026-04-25T10:22:21Z</time>
			</trkpt>
			<trkpt lat="59.0882785320282" lon="30.011210799217224">
				<ele>76.55999755859375</ele>
				<time>2026-04-25T10:22:39Z</time>
			</trkpt>
			<trkpt lat="59.08829712867737" lon="30.011372089385986">
				<ele>75.43000030517578</ele>
				<time>2026-04-25T10:22:57Z</time>
			</trkpt>
			<trkpt lat="59.0883549451828" lon="30.011461973190308">
				<ele>74.45999908447266</ele>
				<time>2026-04-25T10:23:15Z</time>
			</trkpt>
			<trkpt lat="59.0883891582489" lon="30.011592984199524">
				<ele>74.55000305175781</ele>
				<time>2026-04-25T10:23:32Z</time>
			</trkpt>
			<trkpt lat="59.088433027267456" lon="30.01168143749237">
				<ele>74.9800033569336</ele>
				<time>2026-04-25T10:23:51Z</time>
			</trkpt>
			<trkpt lat="59.08845508098602" lon="30.011823773384094">
				<ele>75.2699966430664</ele>
				<time>2026-04-25T10:24:13Z</time>
			</trkpt>
			<trkpt lat="59.08844268321991" lon="30.011995434761047">
				<ele>76.02999877929688</ele>
				<time>2026-04-25T10:24:37Z</time>
			</trkpt>
			<trkpt lat="59.088433623313904" lon="30.012125372886658">
				<ele>76.27999877929688</ele>
				<time>2026-04-25T10:24:57Z</time>
			</trkpt>
			<trkpt lat="59.08838951587677" lon="30.012314915657043">
				<ele>77.73999786376953</ele>
				<time>2026-04-25T10:25:17Z</time>
			</trkpt>
			<trkpt lat="59.08835983276367" lon="30.01245677471161">
				<ele>78.87999725341797</ele>
				<time>2026-04-25T10:25:36Z</time>
			</trkpt>
			<trkpt lat="59.08834934234619" lon="30.012612104415894">
				<ele>79.87000274658203</ele>
				<time>2026-04-25T10:25:57Z</time>
			</trkpt>
			<trkpt lat="59.088377356529236" lon="30.012737035751343">
				<ele>80.77999877929688</ele>
				<time>2026-04-25T10:26:16Z</time>
			</trkpt>
			<trkpt lat="59.08841598033905" lon="30.012879967689514">
				<ele>81.37000274658203</ele>
				<time>2026-04-25T10:26:36Z</time>
			</trkpt>
			<trkpt lat="59.08839416503906" lon="30.01307773590088">
				<ele>81.77999877929688</ele>
				<time>2026-04-25T10:26:55Z</time>
			</trkpt>
			<trkpt lat="59.088435769081116" lon="30.01315665245056">
				<ele>82.33999633789062</ele>
				<time>2026-04-25T10:27:16Z</time>
			</trkpt>
			<trkpt lat="59.0884211063385" lon="30.013190507888794">
				<ele>81.38999938964844</ele>
				<time>2026-04-25T10:27:41Z</time>
			</trkpt>
			<trkpt lat="59.08844256401062" lon="30.013190150260925">
				<ele>79.9000015258789</ele>
				<time>2026-04-25T10:28:11Z</time>
			</trkpt>
			<trkpt lat="59.08850049972534" lon="30.013127326965332">
				<ele>78.16999816894531</ele>
				<time>2026-04-25T10:28:27Z</time>
			</trkpt>
			<trkpt lat="59.0885796546936" lon="30.01312756538391">
				<ele>77.72000122070312</ele>
				<time>2026-04-25T10:28:44Z</time>
			</trkpt>
			<trkpt lat="59.088590145111084" lon="30.01310670375824">
				<ele>77.31999969482422</ele>
				<time>2026-04-25T10:29:01Z</time>
			</trkpt>
			<trkpt lat="59.088584661483765" lon="30.013108134269714">
				<ele>77.83999633789062</ele>
				<time>2026-04-25T10:29:11Z</time>
			</trkpt>
			<trkpt lat="59.088608264923096" lon="30.013129353523254">
				<ele>77.12999725341797</ele>
				<time>2026-04-25T10:29:37Z</time>
			</trkpt>
			<trkpt lat="59.08863127231598" lon="30.01321244239807">
				<ele>77.12999725341797</ele>
				<time>2026-04-25T10:30:07Z</time>
			</trkpt>
			<trkpt lat="59.088587284088135" lon="30.01329016685486">
				<ele>77.30000305175781</ele>
				<time>2026-04-25T10:30:39Z</time>
			</trkpt>
			<trkpt lat="59.088618874549866" lon="30.013322472572327">
				<ele>76.76000213623047</ele>
				<time>2026-04-25T10:31:11Z</time>
			</trkpt>
			<trkpt lat="59.08862566947937" lon="30.013349771499634">
				<ele>77.0999984741211</ele>
				<time>2026-04-25T10:31:30Z</time>
			</trkpt>
			<trkpt lat="59.088621497154236" lon="30.013330578804016">
				<ele>77.37999725341797</ele>
				<time>2026-04-25T10:32:00Z</time>
			</trkpt>
			<trkpt lat="59.088640332221985" lon="30.013315081596375">
				<ele>78.5</ele>
				<time>2026-04-25T10:32:28Z</time>
			</trkpt>
			<trkpt lat="59.088677525520325" lon="30.013423919677734">
				<ele>79.06999969482422</ele>
				<time>2026-04-25T10:32:46Z</time>
			</trkpt>
			<trkpt lat="59.08871066570282" lon="30.013423681259155">
				<ele>79.44000244140625</ele>
				<time>2026-04-25T10:32:56Z</time>
			</trkpt>
			<trkpt lat="59.08874452114105" lon="30.013458371162415">
				<ele>79.9800033569336</ele>
				<time>2026-04-25T10:33:11Z</time>
			</trkpt>
			<trkpt lat="59.08873951435089" lon="30.013558983802795">
				<ele>80.36000061035156</ele>
				<time>2026-04-25T10:33:26Z</time>
			</trkpt>
			<trkpt lat="59.088717460632324" lon="30.013588190078735">
				<ele>81.08000183105469</ele>
				<time>2026-04-25T10:33:50Z</time>
			</trkpt>
			<trkpt lat="59.08875119686127" lon="30.013577222824097">
				<ele>81.83000183105469</ele>
				<time>2026-04-25T10:34:18Z</time>
			</trkpt>
			<trkpt lat="59.088743448257446" lon="30.013548851013184">
				<ele>82.12999725341797</ele>
				<time>2026-04-25T10:34:49Z</time>
			</trkpt>
			<trkpt lat="59.08875632286072" lon="30.013602375984192">
				<ele>81.98999786376953</ele>
				<time>2026-04-25T10:35:12Z</time>
			</trkpt>
			<trkpt lat="59.08875751495361" lon="30.013757944107056">
				<ele>82.72000122070312</ele>
				<time>2026-04-25T10:35:32Z</time>
			</trkpt>
			<trkpt lat="59.088799595832825" lon="30.01392889022827">
				<ele>83.44000244140625</ele>
				<time>2026-04-25T10:35:50Z</time>
			</trkpt>
			<trkpt lat="59.088821053504944" lon="30.01409125328064">
				<ele>84.02999877929688</ele>
				<time>2026-04-25T10:36:09Z</time>
			</trkpt>
			<trkpt lat="59.08885097503662" lon="30.01418387889862">
				<ele>84.83000183105469</ele>
				<time>2026-04-25T10:36:28Z</time>
			</trkpt>
			<trkpt lat="59.088873744010925" lon="30.014275193214417">
				<ele>85.44000244140625</ele>
				<time>2026-04-25T10:36:49Z</time>
			</trkpt>
			<trkpt lat="59.08887588977814" lon="30.014264345169067">
				<ele>85.72000122070312</ele>
				<time>2026-04-25T10:37:13Z</time>
			</trkpt>
			<trkpt lat="59.08887827396393" lon="30.014272332191467">
				<ele>86.33000183105469</ele>
				<time>2026-04-25T10:37:36Z</time>
			</trkpt>
			<trkpt lat="59.08889126777649" lon="30.01425313949585">
				<ele>86.73999786376953</ele>
				<time>2026-04-25T10:38:01Z</time>
			</trkpt>
			<trkpt lat="59.088897705078125" lon="30.014322519302368">
				<ele>86.2300033569336</ele>
				<time>2026-04-25T10:38:30Z</time>
			</trkpt>
			<trkpt lat="59.088913321495056" lon="30.01450228691101">
				<ele>86.30999755859375</ele>
				<time>2026-04-25T10:38:49Z</time>
			</trkpt>
			<trkpt lat="59.08893013000488" lon="30.014540553092957">
				<ele>86.37000274658203</ele>
				<time>2026-04-25T10:39:09Z</time>
			</trkpt>
			<trkpt lat="59.08895182609558" lon="30.01462423801422">
				<ele>86.70999908447266</ele>
				<time>2026-04-25T10:39:31Z</time>
			</trkpt>
			<trkpt lat="59.08897626399994" lon="30.01460611820221">
				<ele>87.06999969482422</ele>
				<time>2026-04-25T10:39:55Z</time>
			</trkpt>
			<trkpt lat="59.08903932571411" lon="30.014507055282593">
				<ele>87.20999908447266</ele>
				<time>2026-04-25T10:40:15Z</time>
			</trkpt>
			<trkpt lat="59.08907425403595" lon="30.014535784721375">
				<ele>87.62999725341797</ele>
				<time>2026-04-25T10:40:33Z</time>
			</trkpt>
			<trkpt lat="59.08912432193756" lon="30.014557123184204">
				<ele>87.47000122070312</ele>
				<time>2026-04-25T10:41:02Z</time>
			</trkpt>
			<trkpt lat="59.089165925979614" lon="30.0145024061203">
				<ele>88.47000122070312</ele>
				<time>2026-04-25T10:41:24Z</time>
			</trkpt>
			<trkpt lat="59.08913195133209" lon="30.01458752155304">
				<ele>87.1500015258789</ele>
				<time>2026-04-25T10:41:46Z</time>
			</trkpt>
			<trkpt lat="59.0891238451004" lon="30.014603972434998">
				<ele>88.69000244140625</ele>
				<time>2026-04-25T10:41:50Z</time>
			</trkpt>
			<trkpt lat="59.0890793800354" lon="30.01462209224701">
				<ele>86.95999908447266</ele>
				<time>2026-04-25T10:42:25Z</time>
			</trkpt>
			<trkpt lat="59.08908927440643" lon="30.014556884765625">
				<ele>86.04000091552734</ele>
				<time>2026-04-25T10:42:50Z</time>
			</trkpt>
			<trkpt lat="59.08910536766052" lon="30.014566898345947">
				<ele>83.52999877929688</ele>
				<time>2026-04-25T10:42:59Z</time>
			</trkpt>
			<trkpt lat="59.089118242263794" lon="30.01459515094757">
				<ele>85.18000030517578</ele>
				<time>2026-04-25T10:43:08Z</time>
			</trkpt>
			<trkpt lat="59.08913469314575" lon="30.014575123786926">
				<ele>82.58999633789062</ele>
				<time>2026-04-25T10:43:25Z</time>
			</trkpt>
			<trkpt lat="59.08912551403046" lon="30.01457190513611">
				<ele>84.33000183105469</ele>
				<time>2026-04-25T10:43:28Z</time>
			</trkpt>
			<trkpt lat="59.08912456035614" lon="30.014576077461243">
				<ele>84.45999908447266</ele>
				<time>2026-04-25T10:43:36Z</time>
			</trkpt>
			<trkpt lat="59.08911848068237" lon="30.014641880989075">
				<ele>82.54000091552734</ele>
				<time>2026-04-25T10:44:03Z</time>
			</trkpt>
			<trkpt lat="59.08913052082062" lon="30.01466703414917">
				<ele>81.69000244140625</ele>
				<time>2026-04-25T10:44:32Z</time>
			</trkpt>
			<trkpt lat="59.089120507240295" lon="30.014667510986328">
				<ele>81.06999969482422</ele>
				<time>2026-04-25T10:44:36Z</time>
			</trkpt>
			<trkpt lat="59.08910620212555" lon="30.014668703079224">
				<ele>79.4000015258789</ele>
				<time>2026-04-25T10:44:48Z</time>
			</trkpt>
			<trkpt lat="59.08911108970642" lon="30.014637231826782">
				<ele>79.5999984741211</ele>
				<time>2026-04-25T10:44:59Z</time>
			</trkpt>
			<trkpt lat="59.089147210121155" lon="30.01457941532135">
				<ele>79.12999725341797</ele>
				<time>2026-04-25T10:45:11Z</time>
			</trkpt>
			<trkpt lat="59.08913958072662" lon="30.014604210853577">
				<ele>76.94999694824219</ele>
				<time>2026-04-25T10:45:43Z</time>
			</trkpt>
			<trkpt lat="59.089110016822815" lon="30.014652729034424">
				<ele>73.83000183105469</ele>
				<time>2026-04-25T10:46:09Z</time>
			</trkpt>
			<trkpt lat="59.08913850784302" lon="30.01457405090332">
				<ele>72.5199966430664</ele>
				<time>2026-04-25T10:46:33Z</time>
			</trkpt>
			<trkpt lat="59.08912467956543" lon="30.014581084251404">
				<ele>73.55000305175781</ele>
				<time>2026-04-25T10:47:01Z</time>
			</trkpt>
			<trkpt lat="59.089099407196045" lon="30.014657616615295">
				<ele>73.0</ele>
				<time>2026-04-25T10:47:24Z</time>
			</trkpt>
			<trkpt lat="59.089086413383484" lon="30.014659643173218">
				<ele>73.77999877929688</ele>
				<time>2026-04-25T10:47:30Z</time>
			</trkpt>
			<trkpt lat="59.08902943134308" lon="30.014451146125793">
				<ele>72.9800033569336</ele>
				<time>2026-04-25T10:47:52Z</time>
			</trkpt>
			<trkpt lat="59.08897590637207" lon="30.014232873916626">
				<ele>74.16000366210938</ele>
				<time>2026-04-25T10:48:13Z</time>
			</trkpt>
			<trkpt lat="59.0889208316803" lon="30.014172434806824">
				<ele>74.58999633789062</ele>
				<time>2026-04-25T10:48:32Z</time>
			</trkpt>
			<trkpt lat="59.08888804912567" lon="30.014099955558777">
				<ele>75.37000274658203</ele>
				<time>2026-04-25T10:48:51Z</time>
			</trkpt>
			<trkpt lat="59.08883881568909" lon="30.014150023460388">
				<ele>76.55000305175781</ele>
				<time>2026-04-25T10:49:10Z</time>
			</trkpt>
			<trkpt lat="59.088764905929565" lon="30.014018177986145">
				<ele>77.70999908447266</ele>
				<time>2026-04-25T10:49:32Z</time>
			</trkpt>
			<trkpt lat="59.088741421699524" lon="30.013808965682983">
				<ele>78.41999816894531</ele>
				<time>2026-04-25T10:49:51Z</time>
			</trkpt>
			<trkpt lat="59.08871269226074" lon="30.01366126537323">
				<ele>80.26000213623047</ele>
				<time>2026-04-25T10:50:10Z</time>
			</trkpt>
			<trkpt lat="59.08874428272247" lon="30.01354229450226">
				<ele>81.61000061035156</ele>
				<time>2026-04-25T10:50:24Z</time>
			</trkpt>
			<trkpt lat="59.08871948719025" lon="30.013356924057007">
				<ele>83.0199966430664</ele>
				<time>2026-04-25T10:50:43Z</time>
			</trkpt>
			<trkpt lat="59.088754415512085" lon="30.013173580169678">
				<ele>84.31999969482422</ele>
				<time>2026-04-25T10:51:03Z</time>
			</trkpt>
			<trkpt lat="59.088812828063965" lon="30.01304602622986">
				<ele>85.79000091552734</ele>
				<time>2026-04-25T10:51:24Z</time>
			</trkpt>
			<trkpt lat="59.08890390396118" lon="30.01310157775879">
				<ele>87.06999969482422</ele>
				<time>2026-04-25T10:51:44Z</time>
			</trkpt>
			<trkpt lat="59.08898067474365" lon="30.0129953622818">
				<ele>87.94999694824219</ele>
				<time>2026-04-25T10:52:03Z</time>
			</trkpt>
			<trkpt lat="59.089048743247986" lon="30.012877821922302">
				<ele>89.27999877929688</ele>
				<time>2026-04-25T10:52:26Z</time>
			</trkpt>
			<trkpt lat="59.08912003040314" lon="30.012912154197693">
				<ele>89.47000122070312</ele>
				<time>2026-04-25T10:52:48Z</time>
			</trkpt>
			<trkpt lat="59.08918297290802" lon="30.012872576713562">
				<ele>90.66999816894531</ele>
				<time>2026-04-25T10:53:07Z</time>
			</trkpt>
			<trkpt lat="59.08920872211456" lon="30.01291298866272">
				<ele>91.91000366210938</ele>
				<time>2026-04-25T10:53:31Z</time>
			</trkpt>
			<trkpt lat="59.08923780918121" lon="30.012887597084045">
				<ele>91.08000183105469</ele>
				<time>2026-04-25T10:54:02Z</time>
			</trkpt>
			<trkpt lat="59.08930313587189" lon="30.012776494026184">
				<ele>90.12999725341797</ele>
				<time>2026-04-25T10:54:22Z</time>
			</trkpt>
			<trkpt lat="59.08935189247131" lon="30.012620210647583">
				<ele>90.12999725341797</ele>
				<time>2026-04-25T10:54:41Z</time>
			</trkpt>
			<trkpt lat="59.08943271636963" lon="30.012489676475525">
				<ele>90.16000366210938</ele>
				<time>2026-04-25T10:55:03Z</time>
			</trkpt>
			<trkpt lat="59.089518904685974" lon="30.012546181678772">
				<ele>90.58000183105469</ele>
				<time>2026-04-25T10:55:20Z</time>
			</trkpt>
			<trkpt lat="59.089621782302856" lon="30.012519240379333">
				<ele>90.94999694824219</ele>
				<time>2026-04-25T10:55:40Z</time>
			</trkpt>
			<trkpt lat="59.08974051475525" lon="30.01241183280945">
				<ele>91.38999938964844</ele>
				<time>2026-04-25T10:56:01Z</time>
			</trkpt>
			<trkpt lat="59.08984053134918" lon="30.01237118244171">
				<ele>91.81999969482422</ele>
				<time>2026-04-25T10:56:22Z</time>
			</trkpt>
			<trkpt lat="59.08985722064972" lon="30.01243233680725">
				<ele>91.80999755859375</ele>
				<time>2026-04-25T10:56:42Z</time>
			</trkpt>
			<trkpt lat="59.08990502357483" lon="30.012481927871704">
				<ele>92.91999816894531</ele>
				<time>2026-04-25T10:57:07Z</time>
			</trkpt>
			<trkpt lat="59.08992302417755" lon="30.012444972991943">
				<ele>92.66000366210938</ele>
				<time>2026-04-25T10:57:36Z</time>
			</trkpt>
			<trkpt lat="59.089956164360046" lon="30.012381076812744">
				<ele>92.19999694824219</ele>
				<time>2026-04-25T10:57:58Z</time>
			</trkpt>
			<trkpt lat="59.08992540836334" lon="30.012142539024353">
				<ele>91.61000061035156</ele>
				<time>2026-04-25T10:58:20Z</time>
			</trkpt>
			<trkpt lat="59.08991324901581" lon="30.01188373565674">
				<ele>91.19999694824219</ele>
				<time>2026-04-25T10:58:39Z</time>
			</trkpt>
			<trkpt lat="59.08989155292511" lon="30.011658430099487">
				<ele>91.41000366210938</ele>
				<time>2026-04-25T10:58:57Z</time>
			</trkpt>
			<trkpt lat="59.08984088897705" lon="30.011332511901855">
				<ele>91.91999816894531</ele>
				<time>2026-04-25T10:59:19Z</time>
			</trkpt>
			<trkpt lat="59.08981513977051" lon="30.011075019836426">
				<ele>92.44000244140625</ele>
				<time>2026-04-25T10:59:39Z</time>
			</trkpt>
			<trkpt lat="59.08984136581421" lon="30.010866403579712">
				<ele>93.0</ele>
				<time>2026-04-25T10:59:57Z</time>
			</trkpt>
			<trkpt lat="59.08988654613495" lon="30.01053237915039">
				<ele>93.95999908447266</ele>
				<time>2026-04-25T11:00:21Z</time>
			</trkpt>
			<trkpt lat="59.08984982967377" lon="30.010377049446106">
				<ele>95.30000305175781</ele>
				<time>2026-04-25T11:00:44Z</time>
			</trkpt>
			<trkpt lat="59.089858055114746" lon="30.010327577590942">
				<ele>96.04000091552734</ele>
				<time>2026-04-25T11:01:10Z</time>
			</trkpt>
			<trkpt lat="59.089847445487976" lon="30.010311603546143">
				<ele>94.9800033569336</ele>
				<time>2026-04-25T11:01:41Z</time>
			</trkpt>
			<trkpt lat="59.08974575996399" lon="30.010176062583923">
				<ele>92.62000274658203</ele>
				<time>2026-04-25T11:02:01Z</time>
			</trkpt>
			<trkpt lat="59.0897171497345" lon="30.0099618434906">
				<ele>92.66999816894531</ele>
				<time>2026-04-25T11:02:23Z</time>
			</trkpt>
			<trkpt lat="59.08978724479675" lon="30.00969123840332">
				<ele>92.2699966430664</ele>
				<time>2026-04-25T11:02:45Z</time>
			</trkpt>
			<trkpt lat="59.08979630470276" lon="30.009502172470093">
				<ele>92.4000015258789</ele>
				<time>2026-04-25T11:03:01Z</time>
			</trkpt>
			<trkpt lat="59.089728474617004" lon="30.009220123291016">
				<ele>93.16000366210938</ele>
				<time>2026-04-25T11:03:23Z</time>
			</trkpt>
			<trkpt lat="59.089712619781494" lon="30.0090309381485">
				<ele>93.69000244140625</ele>
				<time>2026-04-25T11:03:43Z</time>
			</trkpt>
			<trkpt lat="59.08970880508423" lon="30.0089670419693">
				<ele>94.43000030517578</ele>
				<time>2026-04-25T11:04:05Z</time>
			</trkpt>
			<trkpt lat="59.08970248699188" lon="30.00876224040985">
				<ele>95.12999725341797</ele>
				<time>2026-04-25T11:04:28Z</time>
			</trkpt>
			<trkpt lat="59.089688420295715" lon="30.008609890937805">
				<ele>94.88999938964844</ele>
				<time>2026-04-25T11:04:52Z</time>
			</trkpt>
			<trkpt lat="59.089630484580994" lon="30.00855255126953">
				<ele>95.01000213623047</ele>
				<time>2026-04-25T11:05:20Z</time>
			</trkpt>
			<trkpt lat="59.089640378952026" lon="30.008501291275024">
				<ele>94.55999755859375</ele>
				<time>2026-04-25T11:05:41Z</time>
			</trkpt>
			<trkpt lat="59.0896760225296" lon="30.008455991744995">
				<ele>91.25</ele>
				<time>2026-04-25T11:06:04Z</time>
			</trkpt>
			<trkpt lat="59.0896338224411" lon="30.00839626789093">
				<ele>90.70999908447266</ele>
				<time>2026-04-25T11:06:23Z</time>
			</trkpt>
			<trkpt lat="59.08963477611542" lon="30.00826144218445">
				<ele>90.63999938964844</ele>
				<time>2026-04-25T11:06:40Z</time>
			</trkpt>
			<trkpt lat="59.08963370323181" lon="30.008033514022827">
				<ele>91.04000091552734</ele>
				<time>2026-04-25T11:07:02Z</time>
			</trkpt>
			<trkpt lat="59.08962070941925" lon="30.007832288742065">
				<ele>90.97000122070312</ele>
				<time>2026-04-25T11:07:22Z</time>
			</trkpt>
			<trkpt lat="59.08962047100067" lon="30.00776731967926">
				<ele>91.33000183105469</ele>
				<time>2026-04-25T11:07:27Z</time>
			</trkpt>
			<trkpt lat="59.08962380886078" lon="30.00746476650238">
				<ele>92.0999984741211</ele>
				<time>2026-04-25T11:07:48Z</time>
			</trkpt>
			<trkpt lat="59.0895893573761" lon="30.007158875465393">
				<ele>92.38999938964844</ele>
				<time>2026-04-25T11:08:08Z</time>
			</trkpt>
			<trkpt lat="59.08955633640289" lon="30.006990909576416">
				<ele>92.20999908447266</ele>
				<time>2026-04-25T11:08:32Z</time>
			</trkpt>
			<trkpt lat="59.089540004730225" lon="30.007030367851257">
				<ele>92.29000091552734</ele>
				<time>2026-04-25T11:09:01Z</time>
			</trkpt>
			<trkpt lat="59.08952558040619" lon="30.007028818130493">
				<ele>92.0199966430664</ele>
				<time>2026-04-25T11:09:30Z</time>
			</trkpt>
			<trkpt lat="59.08952009677887" lon="30.00694739818573">
				<ele>90.31999969482422</ele>
				<time>2026-04-25T11:09:50Z</time>
			</trkpt>
			<trkpt lat="59.089542508125305" lon="30.00676119327545">
				<ele>89.47000122070312</ele>
				<time>2026-04-25T11:10:09Z</time>
			</trkpt>
			<trkpt lat="59.08950185775757" lon="30.006553053855896">
				<ele>89.4800033569336</ele>
				<time>2026-04-25T11:10:30Z</time>
			</trkpt>
			<trkpt lat="59.08949685096741" lon="30.0063214302063">
				<ele>88.98999786376953</ele>
				<time>2026-04-25T11:10:50Z</time>
			</trkpt>
			<trkpt lat="59.089508056640625" lon="30.00604808330536">
				<ele>89.0999984741211</ele>
				<time>2026-04-25T11:11:11Z</time>
			</trkpt>
			<trkpt lat="59.089518427848816" lon="30.005779027938843">
				<ele>89.6500015258789</ele>
				<time>2026-04-25T11:11:29Z</time>
			</trkpt>
			<trkpt lat="59.089500188827515" lon="30.00561213493347">
				<ele>89.80999755859375</ele>
				<time>2026-04-25T11:11:50Z</time>
			</trkpt>
			<trkpt lat="59.089511036872864" lon="30.005476117134094">
				<ele>89.45999908447266</ele>
				<time>2026-04-25T11:12:13Z</time>
			</trkpt>
			<trkpt lat="59.089487075805664" lon="30.00545871257782">
				<ele>89.58000183105469</ele>
				<time>2026-04-25T11:12:41Z</time>
			</trkpt>
			<trkpt lat="59.08950066566467" lon="30.00544500350952">
				<ele>87.43000030517578</ele>
				<time>2026-04-25T11:13:10Z</time>
			</trkpt>
			<trkpt lat="59.08956980705261" lon="30.005486130714417">
				<ele>86.2300033569336</ele>
				<time>2026-04-25T11:13:29Z</time>
			</trkpt>
			<trkpt lat="59.0896737575531" lon="30.0055810213089">
				<ele>85.66000366210938</ele>
				<time>2026-04-25T11:13:47Z</time>
			</trkpt>
			<trkpt lat="59.08981156349182" lon="30.00558376312256">
				<ele>85.62999725341797</ele>
				<time>2026-04-25T11:14:07Z</time>
			</trkpt>
			<trkpt lat="59.089924693107605" lon="30.00555455684662">
				<ele>85.51000213623047</ele>
				<time>2026-04-25T11:14:26Z</time>
			</trkpt>
			<trkpt lat="59.09000384807587" lon="30.00554645061493">
				<ele>85.62999725341797</ele>
				<time>2026-04-25T11:14:46Z</time>
			</trkpt>
			<trkpt lat="59.09008026123047" lon="30.00547480583191">
				<ele>86.05000305175781</ele>
				<time>2026-04-25T11:15:10Z</time>
			</trkpt>
			<trkpt lat="59.090137124061584" lon="30.005518555641174">
				<ele>86.02999877929688</ele>
				<time>2026-04-25T11:15:36Z</time>
			</trkpt>
			<trkpt lat="59.09018075466156" lon="30.005510330200195">
				<ele>86.45999908447266</ele>
				<time>2026-04-25T11:16:01Z</time>
			</trkpt>
			<trkpt lat="59.09016132354736" lon="30.005496859550476">
				<ele>85.29000091552734</ele>
				<time>2026-04-25T11:16:24Z</time>
			</trkpt>
			<trkpt lat="59.090190291404724" lon="30.0054714679718">
				<ele>84.12000274658203</ele>
				<time>2026-04-25T11:16:46Z</time>
			</trkpt>
			<trkpt lat="59.09019494056702" lon="30.005412459373474">
				<ele>83.80000305175781</ele>
				<time>2026-04-25T11:17:04Z</time>
			</trkpt>
			<trkpt lat="59.090245962142944" lon="30.005386471748352">
				<ele>84.19999694824219</ele>
				<time>2026-04-25T11:17:21Z</time>
			</trkpt>
			<trkpt lat="59.09032166004181" lon="30.005347728729248">
				<ele>84.3499984741211</ele>
				<time>2026-04-25T11:17:44Z</time>
			</trkpt>
			<trkpt lat="59.090402483940125" lon="30.005289554595947">
				<ele>84.52999877929688</ele>
				<time>2026-04-25T11:18:02Z</time>
			</trkpt>
			<trkpt lat="59.09050107002258" lon="30.005220890045166">
				<ele>84.56999969482422</ele>
				<time>2026-04-25T11:18:22Z</time>
			</trkpt>
			<trkpt lat="59.09057438373566" lon="30.00534749031067">
				<ele>84.79000091552734</ele>
				<time>2026-04-25T11:18:43Z</time>
			</trkpt>
			<trkpt lat="59.090656042099" lon="30.005385637283325">
				<ele>83.98999786376953</ele>
				<time>2026-04-25T11:19:02Z</time>
			</trkpt>
			<trkpt lat="59.09068775177002" lon="30.005395531654358">
				<ele>84.25</ele>
				<time>2026-04-25T11:19:26Z</time>
			</trkpt>
			<trkpt lat="59.09068977832794" lon="30.005369663238525">
				<ele>82.77999877929688</ele>
				<time>2026-04-25T11:19:49Z</time>
			</trkpt>
			<trkpt lat="59.090712785720825" lon="30.00540840625763">
				<ele>81.7699966430664</ele>
				<time>2026-04-25T11:20:15Z</time>
			</trkpt>
			<trkpt lat="59.090713024139404" lon="30.00557315349579">
				<ele>79.83999633789062</ele>
				<time>2026-04-25T11:20:36Z</time>
			</trkpt>
			<trkpt lat="59.09067094326019" lon="30.005760550498962">
				<ele>79.87000274658203</ele>
				<time>2026-04-25T11:20:58Z</time>
			</trkpt>
			<trkpt lat="59.090648889541626" lon="30.006016731262207">
				<ele>80.19000244140625</ele>
				<time>2026-04-25T11:21:20Z</time>
			</trkpt>
			<trkpt lat="59.09063935279846" lon="30.006319642066956">
				<ele>80.83000183105469</ele>
				<time>2026-04-25T11:21:42Z</time>
			</trkpt>
			<trkpt lat="59.09063637256622" lon="30.006327271461487">
				<ele>80.97000122070312</ele>
				<time>2026-04-25T11:21:43Z</time>
			</trkpt>
			<trkpt lat="59.090609669685364" lon="30.006534218788147">
				<ele>82.19999694824219</ele>
				<time>2026-04-25T11:22:08Z</time>
			</trkpt>
			<trkpt lat="59.090620279312134" lon="30.006726384162903">
				<ele>84.01000213623047</ele>
				<time>2026-04-25T11:22:29Z</time>
			</trkpt>
			<trkpt lat="59.090683937072754" lon="30.006886959075928">
				<ele>85.12000274658203</ele>
				<time>2026-04-25T11:22:52Z</time>
			</trkpt>
			<trkpt lat="59.09068238735199" lon="30.00710141658783">
				<ele>85.81999969482422</ele>
				<time>2026-04-25T11:23:16Z</time>
			</trkpt>
			<trkpt lat="59.09066677093506" lon="30.007180333137512">
				<ele>86.04000091552734</ele>
				<time>2026-04-25T11:23:31Z</time>
			</trkpt>
			<trkpt lat="59.09062421321869" lon="30.00712537765503">
				<ele>87.27999877929688</ele>
				<time>2026-04-25T11:23:59Z</time>
			</trkpt>
			<trkpt lat="59.09063506126404" lon="30.007139086723328">
				<ele>88.12999725341797</ele>
				<time>2026-04-25T11:24:25Z</time>
			</trkpt>
			<trkpt lat="59.090657353401184" lon="30.007206201553345">
				<ele>87.77999877929688</ele>
				<time>2026-04-25T11:24:51Z</time>
			</trkpt>
			<trkpt lat="59.09074866771698" lon="30.007267713546753">
				<ele>88.01000213623047</ele>
				<time>2026-04-25T11:25:15Z</time>
			</trkpt>
			<trkpt lat="59.09075629711151" lon="30.00722587108612">
				<ele>89.12000274658203</ele>
				<time>2026-04-25T11:25:45Z</time>
			</trkpt>
			<trkpt lat="59.0907347202301" lon="30.007193684577942">
				<ele>90.4000015258789</ele>
				<time>2026-04-25T11:26:13Z</time>
			</trkpt>
			<trkpt lat="59.09069001674652" lon="30.00715970993042">
				<ele>91.5</ele>
				<time>2026-04-25T11:26:42Z</time>
			</trkpt>
			<trkpt lat="59.09070909023285" lon="30.007133841514587">
				<ele>92.36000061035156</ele>
				<time>2026-04-25T11:27:11Z</time>
			</trkpt>
			<trkpt lat="59.09082651138306" lon="30.007025599479675">
				<ele>94.33000183105469</ele>
				<time>2026-04-25T11:27:41Z</time>
			</trkpt>
			<trkpt lat="59.09077990055084" lon="30.00712490081787">
				<ele>96.16999816894531</ele>
				<time>2026-04-25T11:28:12Z</time>
			</trkpt>
			<trkpt lat="59.09076154232025" lon="30.00719428062439">
				<ele>97.80999755859375</ele>
				<time>2026-04-25T11:28:42Z</time>
			</trkpt>
			<trkpt lat="59.09074854850769" lon="30.007214903831482">
				<ele>99.77999877929688</ele>
				<time>2026-04-25T11:29:11Z</time>
			</trkpt>
			<trkpt lat="59.09073317050934" lon="30.007210731506348">
				<ele>101.20999908447266</ele>
				<time>2026-04-25T11:29:40Z</time>
			</trkpt>
			<trkpt lat="59.090760707855225" lon="30.007217168807983">
				<ele>102.5199966430664</ele>
				<time>2026-04-25T11:30:17Z</time>
			</trkpt>
			<trkpt lat="59.09075927734375" lon="30.00713288784027">
				<ele>104.12000274658203</ele>
				<time>2026-04-25T11:30:49Z</time>
			</trkpt>
			<trkpt lat="59.09076809883118" lon="30.00719463825226">
				<ele>106.48999786376953</ele>
				<time>2026-04-25T11:31:47Z</time>
			</trkpt>
			<trkpt lat="59.090779423713684" lon="30.007217407226562">
				<ele>108.25</ele>
				<time>2026-04-25T11:32:15Z</time>
			</trkpt>
			<trkpt lat="59.09078133106232" lon="30.007206916809082">
				<ele>108.19000244140625</ele>
				<time>2026-04-25T11:32:18Z</time>
			</trkpt>
			<trkpt lat="59.090800523757935" lon="30.00724768638611">
				<ele>108.44999694824219</ele>
				<time>2026-04-25T11:32:23Z</time>
			</trkpt>
			<trkpt lat="59.09079837799072" lon="30.007248520851135">
				<ele>109.37999725341797</ele>
				<time>2026-04-25T11:32:49Z</time>
			</trkpt>
			<trkpt lat="59.09078359603882" lon="30.00730049610138">
				<ele>110.26000213623047</ele>
				<time>2026-04-25T11:33:07Z</time>
			</trkpt>
			<trkpt lat="59.09074509143829" lon="30.00726008415222">
				<ele>110.97000122070312</ele>
				<time>2026-04-25T11:33:37Z</time>
			</trkpt>
			<trkpt lat="59.090787291526794" lon="30.007190227508545">
				<ele>112.0</ele>
				<time>2026-04-25T11:34:06Z</time>
			</trkpt>
			<trkpt lat="59.09074509143829" lon="30.007178902626038">
				<ele>112.48999786376953</ele>
				<time>2026-04-25T11:34:25Z</time>
			</trkpt>
			<trkpt lat="59.09074282646179" lon="30.007209539413452">
				<ele>113.33000183105469</ele>
				<time>2026-04-25T11:34:53Z</time>
			</trkpt>
			<trkpt lat="59.09075367450714" lon="30.00715982913971">
				<ele>113.68000030517578</ele>
				<time>2026-04-25T11:35:04Z</time>
			</trkpt>
			<trkpt lat="59.09078502655029" lon="30.00712025165558">
				<ele>114.0999984741211</ele>
				<time>2026-04-25T11:35:14Z</time>
			</trkpt>
			<trkpt lat="59.090800046920776" lon="30.007091760635376">
				<ele>114.01000213623047</ele>
				<time>2026-04-25T11:35:18Z</time>
			</trkpt>
			<trkpt lat="59.09083425998688" lon="30.00706911087036">
				<ele>114.22000122070312</ele>
				<time>2026-04-25T11:35:25Z</time>
			</trkpt>
			<trkpt lat="59.0907826423645" lon="30.007125973701477">
				<ele>115.97000122070312</ele>
				<time>2026-04-25T11:35:55Z</time>
			</trkpt>
			<trkpt lat="59.09077489376068" lon="30.00718605518341">
				<ele>114.51000213623047</ele>
				<time>2026-04-25T11:36:13Z</time>
			</trkpt>
			<trkpt lat="59.090808153152466" lon="30.00721824169159">
				<ele>113.5999984741211</ele>
				<time>2026-04-25T11:36:39Z</time>
			</trkpt>
			<trkpt lat="59.090808272361755" lon="30.007262349128723">
				<ele>113.18000030517578</ele>
				<time>2026-04-25T11:37:00Z</time>
			</trkpt>
			<trkpt lat="59.090797781944275" lon="30.007458567619324">
				<ele>112.94000244140625</ele>
				<time>2026-04-25T11:37:21Z</time>
			</trkpt>
			<trkpt lat="59.09076178073883" lon="30.007715582847595">
				<ele>112.81999969482422</ele>
				<time>2026-04-25T11:37:43Z</time>
			</trkpt>
			<trkpt lat="59.09082329273224" lon="30.00790286064148">
				<ele>112.94999694824219</ele>
				<time>2026-04-25T11:38:03Z</time>
			</trkpt>
			<trkpt lat="59.09084939956665" lon="30.00815176963806">
				<ele>112.94999694824219</ele>
				<time>2026-04-25T11:38:24Z</time>
			</trkpt>
			<trkpt lat="59.09089171886444" lon="30.008405566215515">
				<ele>112.58000183105469</ele>
				<time>2026-04-25T11:38:47Z</time>
			</trkpt>
			<trkpt lat="59.09092438220978" lon="30.008579969406128">
				<ele>112.83999633789062</ele>
				<time>2026-04-25T11:39:04Z</time>
			</trkpt>
			<trkpt lat="59.090866565704346" lon="30.008740305900574">
				<ele>112.45999908447266</ele>
				<time>2026-04-25T11:39:24Z</time>
			</trkpt>
			<trkpt lat="59.09080123901367" lon="30.008808135986328">
				<ele>111.4800033569336</ele>
				<time>2026-04-25T11:39:43Z</time>
			</trkpt>
			<trkpt lat="59.09076130390167" lon="30.008840084075928">
				<ele>110.75</ele>
				<time>2026-04-25T11:40:12Z</time>
			</trkpt>
			<trkpt lat="59.09074151515961" lon="30.008880019187927">
				<ele>109.80000305175781</ele>
				<time>2026-04-25T11:40:41Z</time>
			</trkpt>
			<trkpt lat="59.09082090854645" lon="30.00901210308075">
				<ele>106.76000213623047</ele>
				<time>2026-04-25T11:41:02Z</time>
			</trkpt>
			<trkpt lat="59.09092974662781" lon="30.009256720542908">
				<ele>104.93000030517578</ele>
				<time>2026-04-25T11:41:24Z</time>
			</trkpt>
			<trkpt lat="59.09097671508789" lon="30.009478092193604">
				<ele>104.51000213623047</ele>
				<time>2026-04-25T11:41:47Z</time>
			</trkpt>
			<trkpt lat="59.09103727340698" lon="30.009663224220276">
				<ele>103.97000122070312</ele>
				<time>2026-04-25T11:42:05Z</time>
			</trkpt>
			<trkpt lat="59.09103572368622" lon="30.00982916355133">
				<ele>104.16999816894531</ele>
				<time>2026-04-25T11:42:23Z</time>
			</trkpt>
			<trkpt lat="59.091007232666016" lon="30.010056614875793">
				<ele>103.98999786376953</ele>
				<time>2026-04-25T11:42:44Z</time>
			</trkpt>
			<trkpt lat="59.09098267555237" lon="30.010188460350037">
				<ele>104.18000030517578</ele>
				<time>2026-04-25T11:43:03Z</time>
			</trkpt>
			<trkpt lat="59.09097909927368" lon="30.010208010673523">
				<ele>104.0199966430664</ele>
				<time>2026-04-25T11:43:17Z</time>
			</trkpt>
			<trkpt lat="59.0909583568573" lon="30.010259747505188">
				<ele>103.05000305175781</ele>
				<time>2026-04-25T11:43:43Z</time>
			</trkpt>
			<trkpt lat="59.09097123146057" lon="30.010323405265808">
				<ele>102.62000274658203</ele>
				<time>2026-04-25T11:44:13Z</time>
			</trkpt>
			<trkpt lat="59.09098541736603" lon="30.010297775268555">
				<ele>100.31999969482422</ele>
				<time>2026-04-25T11:44:25Z</time>
			</trkpt>
			<trkpt lat="59.09096658229828" lon="30.01033902168274">
				<ele>99.58999633789062</ele>
				<time>2026-04-25T11:44:50Z</time>
			</trkpt>
			<trkpt lat="59.09096157550812" lon="30.010358214378357">
				<ele>96.70999908447266</ele>
				<time>2026-04-25T11:45:16Z</time>
			</trkpt>
			<trkpt lat="59.09096705913544" lon="30.01037299633026">
				<ele>94.02999877929688</ele>
				<time>2026-04-25T11:45:45Z</time>
			</trkpt>
			<trkpt lat="59.09100377559662" lon="30.01033854484558">
				<ele>92.31999969482422</ele>
				<time>2026-04-25T11:46:14Z</time>
			</trkpt>
			<trkpt lat="59.09098994731903" lon="30.010456323623657">
				<ele>90.77999877929688</ele>
				<time>2026-04-25T11:46:38Z</time>
			</trkpt>
			<trkpt lat="59.09096968173981" lon="30.010725140571594">
				<ele>90.29000091552734</ele>
				<time>2026-04-25T11:46:59Z</time>
			</trkpt>
			<trkpt lat="59.090970277786255" lon="30.010993361473083">
				<ele>89.52999877929688</ele>
				<time>2026-04-25T11:47:23Z</time>
			</trkpt>
			<trkpt lat="59.09102642536163" lon="30.011189699172974">
				<ele>89.22000122070312</ele>
				<time>2026-04-25T11:47:42Z</time>
			</trkpt>
			<trkpt lat="59.09104025363922" lon="30.011403679847717">
				<ele>88.72000122070312</ele>
				<time>2026-04-25T11:48:04Z</time>
			</trkpt>
			<trkpt lat="59.09108293056488" lon="30.011579275131226">
				<ele>88.55000305175781</ele>
				<time>2026-04-25T11:48:23Z</time>
			</trkpt>
			<trkpt lat="59.091073632240295" lon="30.011746883392334">
				<ele>88.16000366210938</ele>
				<time>2026-04-25T11:48:40Z</time>
			</trkpt>
			<trkpt lat="59.09106457233429" lon="30.011841893196106">
				<ele>87.2300033569336</ele>
				<time>2026-04-25T11:49:07Z</time>
			</trkpt>
			<trkpt lat="59.09101343154907" lon="30.01186501979828">
				<ele>87.06999969482422</ele>
				<time>2026-04-25T11:49:33Z</time>
			</trkpt>
			<trkpt lat="59.09103286266327" lon="30.011874079704285">
				<ele>85.20999908447266</ele>
				<time>2026-04-25T11:50:01Z</time>
			</trkpt>
			<trkpt lat="59.09113848209381" lon="30.011733412742615">
				<ele>82.83999633789062</ele>
				<time>2026-04-25T11:50:24Z</time>
			</trkpt>
			<trkpt lat="59.09123241901398" lon="30.011625289916992">
				<ele>82.05000305175781</ele>
				<time>2026-04-25T11:50:44Z</time>
			</trkpt>
			<trkpt lat="59.091307640075684" lon="30.011613488197327">
				<ele>81.5999984741211</ele>
				<time>2026-04-25T11:51:04Z</time>
			</trkpt>
			<trkpt lat="59.09132778644562" lon="30.01162552833557">
				<ele>81.63999938964844</ele>
				<time>2026-04-25T11:51:09Z</time>
			</trkpt>
			<trkpt lat="59.0914626121521" lon="30.01166534423828">
				<ele>81.22000122070312</ele>
				<time>2026-04-25T11:51:26Z</time>
			</trkpt>
			<trkpt lat="59.091574907302856" lon="30.01157534122467">
				<ele>81.37999725341797</ele>
				<time>2026-04-25T11:51:46Z</time>
			</trkpt>
			<trkpt lat="59.091662764549255" lon="30.01158618927002">
				<ele>81.44000244140625</ele>
				<time>2026-04-25T11:52:05Z</time>
			</trkpt>
			<trkpt lat="59.09173929691315" lon="30.011577486991882">
				<ele>81.29000091552734</ele>
				<time>2026-04-25T11:52:29Z</time>
			</trkpt>
			<trkpt lat="59.09175884723663" lon="30.011637210845947">
				<ele>81.05999755859375</ele>
				<time>2026-04-25T11:52:55Z</time>
			</trkpt>
			<trkpt lat="59.09177803993225" lon="30.011618852615356">
				<ele>79.76000213623047</ele>
				<time>2026-04-25T11:53:22Z</time>
			</trkpt>
			<trkpt lat="59.091771483421326" lon="30.01161515712738">
				<ele>79.7300033569336</ele>
				<time>2026-04-25T11:53:26Z</time>
			</trkpt>
			<trkpt lat="59.09182643890381" lon="30.011448621749878">
				<ele>77.86000061035156</ele>
				<time>2026-04-25T11:53:51Z</time>
			</trkpt>
			<trkpt lat="59.09189808368683" lon="30.011399745941162">
				<ele>76.97000122070312</ele>
				<time>2026-04-25T11:54:13Z</time>
			</trkpt>
			<trkpt lat="59.09197986125946" lon="30.01131534576416">
				<ele>76.2300033569336</ele>
				<time>2026-04-25T11:54:35Z</time>
			</trkpt>
			<trkpt lat="59.09207499027252" lon="30.011345982551575">
				<ele>75.7699966430664</ele>
				<time>2026-04-25T11:54:59Z</time>
			</trkpt>
			<trkpt lat="59.092220067977905" lon="30.011313319206238">
				<ele>75.02999877929688</ele>
				<time>2026-04-25T11:55:21Z</time>
			</trkpt>
			<trkpt lat="59.09228157997131" lon="30.01136302947998">
				<ele>73.83999633789062</ele>
				<time>2026-04-25T11:55:43Z</time>
			</trkpt>
			<trkpt lat="59.0922828912735" lon="30.011435866355896">
				<ele>73.98999786376953</ele>
				<time>2026-04-25T11:56:05Z</time>
			</trkpt>
			<trkpt lat="59.09229040145874" lon="30.01142966747284">
				<ele>73.5199966430664</ele>
				<time>2026-04-25T11:56:35Z</time>
			</trkpt>
			<trkpt lat="59.092312693595886" lon="30.0113046169281">
				<ele>71.81999969482422</ele>
				<time>2026-04-25T11:57:00Z</time>
			</trkpt>
			<trkpt lat="59.09230196475983" lon="30.01128900051117">
				<ele>71.55000305175781</ele>
				<time>2026-04-25T11:57:05Z</time>
			</trkpt>
			<trkpt lat="59.09229528903961" lon="30.01126456260681">
				<ele>70.26000213623047</ele>
				<time>2026-04-25T11:57:34Z</time>
			</trkpt>
			<trkpt lat="59.09231352806091" lon="30.011311650276184">
				<ele>70.0199966430664</ele>
				<time>2026-04-25T11:58:01Z</time>
			</trkpt>
			<trkpt lat="59.09230327606201" lon="30.011258482933044">
				<ele>69.98999786376953</ele>
				<time>2026-04-25T11:58:10Z</time>
			</trkpt>
			<trkpt lat="59.09230899810791" lon="30.011128187179565">
				<ele>69.48999786376953</ele>
				<time>2026-04-25T11:58:30Z</time>
			</trkpt>
			<trkpt lat="59.092318177223206" lon="30.011006951332092">
				<ele>68.98999786376953</ele>
				<time>2026-04-25T11:58:53Z</time>
			</trkpt>
			<trkpt lat="59.092336773872375" lon="30.010865926742554">
				<ele>68.94999694824219</ele>
				<time>2026-04-25T11:59:16Z</time>
			</trkpt>
			<trkpt lat="59.09234321117401" lon="30.010753989219666">
				<ele>68.95999908447266</ele>
				<time>2026-04-25T11:59:37Z</time>
			</trkpt>
			<trkpt lat="59.09230279922485" lon="30.010473012924194">
				<ele>68.7300033569336</ele>
				<time>2026-04-25T11:59:56Z</time>
			</trkpt>
			<trkpt lat="59.092289328575134" lon="30.010197281837463">
				<ele>68.61000061035156</ele>
				<time>2026-04-25T12:00:16Z</time>
			</trkpt>
			<trkpt lat="59.09227204322815" lon="30.01001751422882">
				<ele>68.80000305175781</ele>
				<time>2026-04-25T12:00:37Z</time>
			</trkpt>
			<trkpt lat="59.092272996902466" lon="30.009896516799927">
				<ele>68.91000366210938</ele>
				<time>2026-04-25T12:00:48Z</time>
			</trkpt>
			<trkpt lat="59.0922669172287" lon="30.009841799736023">
				<ele>69.0999984741211</ele>
				<time>2026-04-25T12:00:55Z</time>
			</trkpt>
			<trkpt lat="59.09223735332489" lon="30.00956618785858">
				<ele>69.66999816894531</ele>
				<time>2026-04-25T12:01:19Z</time>
			</trkpt>
			<trkpt lat="59.092260122299194" lon="30.009256839752197">
				<ele>69.68000030517578</ele>
				<time>2026-04-25T12:01:42Z</time>
			</trkpt>
			<trkpt lat="59.09223508834839" lon="30.00899636745453">
				<ele>69.58999633789062</ele>
				<time>2026-04-25T12:01:59Z</time>
			</trkpt>
			<trkpt lat="59.09221112728119" lon="30.0089213848114">
				<ele>69.58000183105469</ele>
				<time>2026-04-25T12:02:22Z</time>
			</trkpt>
			<trkpt lat="59.092222929000854" lon="30.008896350860596">
				<ele>67.31999969482422</ele>
				<time>2026-04-25T12:02:48Z</time>
			</trkpt>
			<trkpt lat="59.092212557792664" lon="30.008875012397766">
				<ele>67.83999633789062</ele>
				<time>2026-04-25T12:02:56Z</time>
			</trkpt>
			<trkpt lat="59.09220802783966" lon="30.00881290435791">
				<ele>65.54000091552734</ele>
				<time>2026-04-25T12:03:22Z</time>
			</trkpt>
			<trkpt lat="59.092177510261536" lon="30.00867748260498">
				<ele>64.2300033569336</ele>
				<time>2026-04-25T12:03:43Z</time>
			</trkpt>
			<trkpt lat="59.09217631816864" lon="30.008569955825806">
				<ele>63.689998626708984</ele>
				<time>2026-04-25T12:03:58Z</time>
			</trkpt>
			<trkpt lat="59.09215688705444" lon="30.008405566215515">
				<ele>62.959999084472656</ele>
				<time>2026-04-25T12:04:26Z</time>
			</trkpt>
			<trkpt lat="59.092135190963745" lon="30.008373141288757">
				<ele>62.900001525878906</ele>
				<time>2026-04-25T12:04:33Z</time>
			</trkpt>
			<trkpt lat="59.092087149620056" lon="30.008150339126587">
				<ele>62.790000915527344</ele>
				<time>2026-04-25T12:04:57Z</time>
			</trkpt>
			<trkpt lat="59.092066526412964" lon="30.007875323295593">
				<ele>62.849998474121094</ele>
				<time>2026-04-25T12:05:23Z</time>
			</trkpt>
			<trkpt lat="59.091938614845276" lon="30.00775682926178">
				<ele>62.869998931884766</ele>
				<time>2026-04-25T12:05:45Z</time>
			</trkpt>
			<trkpt lat="59.091891169548035" lon="30.00769031047821">
				<ele>63.290000915527344</ele>
				<time>2026-04-25T12:05:59Z</time>
			</trkpt>
			<trkpt lat="59.091925621032715" lon="30.00750744342804">
				<ele>63.77000045776367</ele>
				<time>2026-04-25T12:06:23Z</time>
			</trkpt>
			<trkpt lat="59.091960430145264" lon="30.007277727127075">
				<ele>64.56999969482422</ele>
				<time>2026-04-25T12:06:48Z</time>
			</trkpt>
			<trkpt lat="59.09194529056549" lon="30.007089734077454">
				<ele>65.2300033569336</ele>
				<time>2026-04-25T12:07:09Z</time>
			</trkpt>
			<trkpt lat="59.09197282791138" lon="30.00691282749176">
				<ele>65.2300033569336</ele>
				<time>2026-04-25T12:07:31Z</time>
			</trkpt>
			<trkpt lat="59.09193003177643" lon="30.0068541765213">
				<ele>65.75</ele>
				<time>2026-04-25T12:07:57Z</time>
			</trkpt>
			<trkpt lat="59.09192764759064" lon="30.006842017173767">
				<ele>64.08999633789062</ele>
				<time>2026-04-25T12:08:01Z</time>
			</trkpt>
			<trkpt lat="59.09191715717316" lon="30.00681984424591">
				<ele>65.52999877929688</ele>
				<time>2026-04-25T12:08:14Z</time>
			</trkpt>
			<trkpt lat="59.09190762042999" lon="30.006653308868408">
				<ele>63.970001220703125</ele>
				<time>2026-04-25T12:08:40Z</time>
			</trkpt>
			<trkpt lat="59.091909408569336" lon="30.006491661071777">
				<ele>63.540000915527344</ele>
				<time>2026-04-25T12:09:01Z</time>
			</trkpt>
			<trkpt lat="59.09190917015076" lon="30.006316542625427">
				<ele>63.90999984741211</ele>
				<time>2026-04-25T12:09:21Z</time>
			</trkpt>
			<trkpt lat="59.09187030792236" lon="30.00610589981079">
				<ele>63.959999084472656</ele>
				<time>2026-04-25T12:09:41Z</time>
			</trkpt>
			<trkpt lat="59.09188222885132" lon="30.005934238433838">
				<ele>64.08999633789062</ele>
				<time>2026-04-25T12:10:02Z</time>
			</trkpt>
			<trkpt lat="59.09185087680817" lon="30.005866408348083">
				<ele>64.4000015258789</ele>
				<time>2026-04-25T12:10:25Z</time>
			</trkpt>
			<trkpt lat="59.09187400341034" lon="30.00575864315033">
				<ele>65.31999969482422</ele>
				<time>2026-04-25T12:10:51Z</time>
			</trkpt>
			<trkpt lat="59.0918949842453" lon="30.00554096698761">
				<ele>65.51000213623047</ele>
				<time>2026-04-25T12:11:10Z</time>
			</trkpt>
			<trkpt lat="59.09184968471527" lon="30.005279779434204">
				<ele>66.2699966430664</ele>
				<time>2026-04-25T12:11:29Z</time>
			</trkpt>
			<trkpt lat="59.09181225299835" lon="30.005035996437073">
				<ele>66.7300033569336</ele>
				<time>2026-04-25T12:11:48Z</time>
			</trkpt>
			<trkpt lat="59.0917946100235" lon="30.00485348701477">
				<ele>67.02999877929688</ele>
				<time>2026-04-25T12:12:11Z</time>
			</trkpt>
			<trkpt lat="59.09178829193115" lon="30.00470757484436">
				<ele>66.12000274658203</ele>
				<time>2026-04-25T12:12:34Z</time>
			</trkpt>
			<trkpt lat="59.09178590774536" lon="30.004706025123596">
				<ele>66.13999938964844</ele>
				<time>2026-04-25T12:12:35Z</time>
			</trkpt>
			<trkpt lat="59.09171009063721" lon="30.00462508201599">
				<ele>66.38999938964844</ele>
				<time>2026-04-25T12:13:01Z</time>
			</trkpt>
			<trkpt lat="59.09170973300934" lon="30.004610180854797">
				<ele>66.37999725341797</ele>
				<time>2026-04-25T12:13:05Z</time>
			</trkpt>
			<trkpt lat="59.091695070266724" lon="30.00458586215973">
				<ele>65.16999816894531</ele>
				<time>2026-04-25T12:13:13Z</time>
			</trkpt>
			<trkpt lat="59.091716289520264" lon="30.004491329193115">
				<ele>64.16000366210938</ele>
				<time>2026-04-25T12:13:40Z</time>
			</trkpt>
			<trkpt lat="59.091750144958496" lon="30.004462122917175">
				<ele>62.38999938964844</ele>
				<time>2026-04-25T12:14:06Z</time>
			</trkpt>
			<trkpt lat="59.0917512178421" lon="30.004581093788147">
				<ele>61.04999923706055</ele>
				<time>2026-04-25T12:14:33Z</time>
			</trkpt>
			<trkpt lat="59.09174573421478" lon="30.004719257354736">
				<ele>59.93000030517578</ele>
				<time>2026-04-25T12:15:06Z</time>
			</trkpt>
			<trkpt lat="59.09179604053497" lon="30.00474977493286">
				<ele>59.34000015258789</ele>
				<time>2026-04-25T12:15:35Z</time>
			</trkpt>
			<trkpt lat="59.091848254203796" lon="30.004647254943848">
				<ele>59.209999084472656</ele>
				<time>2026-04-25T12:16:01Z</time>
			</trkpt>
			<trkpt lat="59.091813802719116" lon="30.004692316055298">
				<ele>58.970001220703125</ele>
				<time>2026-04-25T12:16:25Z</time>
			</trkpt>
			<trkpt lat="59.09183979034424" lon="30.00472378730774">
				<ele>58.36000061035156</ele>
				<time>2026-04-25T12:16:54Z</time>
			</trkpt>
			<trkpt lat="59.09180974960327" lon="30.004660844802856">
				<ele>58.099998474121094</ele>
				<time>2026-04-25T12:17:17Z</time>
			</trkpt>
			<trkpt lat="59.09183621406555" lon="30.004705786705017">
				<ele>57.380001068115234</ele>
				<time>2026-04-25T12:17:45Z</time>
			</trkpt>
			<trkpt lat="59.0918835401535" lon="30.004774808883667">
				<ele>57.31999969482422</ele>
				<time>2026-04-25T12:18:13Z</time>
			</trkpt>
			<trkpt lat="59.09188461303711" lon="30.004821181297302">
				<ele>57.349998474121094</ele>
				<time>2026-04-25T12:18:41Z</time>
			</trkpt>
			<trkpt lat="59.09188675880432" lon="30.004786491394043">
				<ele>57.65999984741211</ele>
				<time>2026-04-25T12:18:46Z</time>
			</trkpt>
			<trkpt lat="59.09183418750763" lon="30.0047208070755">
				<ele>57.529998779296875</ele>
				<time>2026-04-25T12:19:12Z</time>
			</trkpt>
			<trkpt lat="59.09184193611145" lon="30.00474464893341">
				<ele>57.4900016784668</ele>
				<time>2026-04-25T12:19:39Z</time>
			</trkpt>
			<trkpt lat="59.091846108436584" lon="30.004770636558533">
				<ele>57.7599983215332</ele>
				<time>2026-04-25T12:20:08Z</time>
			</trkpt>
			<trkpt lat="59.091920018196106" lon="30.004695296287537">
				<ele>57.619998931884766</ele>
				<time>2026-04-25T12:20:34Z</time>
			</trkpt>
			<trkpt lat="59.09186065196991" lon="30.004691123962402">
				<ele>56.66999816894531</ele>
				<time>2026-04-25T12:20:59Z</time>
			</trkpt>
			<trkpt lat="59.09177803993225" lon="30.004834532737732">
				<ele>55.83000183105469</ele>
				<time>2026-04-25T12:21:31Z</time>
			</trkpt>
			<trkpt lat="59.09183657169342" lon="30.004780888557434">
				<ele>55.040000915527344</ele>
				<time>2026-04-25T12:22:07Z</time>
			</trkpt>
			<trkpt lat="59.091837763786316" lon="30.004783153533936">
				<ele>54.58000183105469</ele>
				<time>2026-04-25T12:22:36Z</time>
			</trkpt>
			<trkpt lat="59.09186637401581" lon="30.00476586818695">
				<ele>54.400001525878906</ele>
				<time>2026-04-25T12:22:46Z</time>
			</trkpt>
			<trkpt lat="59.09187424182892" lon="30.004708290100098">
				<ele>54.5099983215332</ele>
				<time>2026-04-25T12:22:49Z</time>
			</trkpt>
			<trkpt lat="59.09192728996277" lon="30.004591703414917">
				<ele>54.72999954223633</ele>
				<time>2026-04-25T12:23:12Z</time>
			</trkpt>
			<trkpt lat="59.091898798942566" lon="30.004591464996338">
				<ele>54.5</ele>
				<time>2026-04-25T12:23:41Z</time>
			</trkpt>
			<trkpt lat="59.09191358089447" lon="30.00454580783844">
				<ele>54.08000183105469</ele>
				<time>2026-04-25T12:24:00Z</time>
			</trkpt>
			<trkpt lat="59.09197211265564" lon="30.004529356956482">
				<ele>52.880001068115234</ele>
				<time>2026-04-25T12:24:19Z</time>
			</trkpt>
			<trkpt lat="59.09202170372009" lon="30.0045405626297">
				<ele>52.619998931884766</ele>
				<time>2026-04-25T12:24:42Z</time>
			</trkpt>
			<trkpt lat="59.092127561569214" lon="30.004565596580505">
				<ele>52.970001220703125</ele>
				<time>2026-04-25T12:25:02Z</time>
			</trkpt>
			<trkpt lat="59.092249512672424" lon="30.004587173461914">
				<ele>53.560001373291016</ele>
				<time>2026-04-25T12:25:20Z</time>
			</trkpt>
			<trkpt lat="59.0923273563385" lon="30.004663228988647">
				<ele>54.54999923706055</ele>
				<time>2026-04-25T12:25:42Z</time>
			</trkpt>
			<trkpt lat="59.09231519699097" lon="30.004658102989197">
				<ele>55.11000061035156</ele>
				<time>2026-04-25T12:26:08Z</time>
			</trkpt>
			<trkpt lat="59.09230172634125" lon="30.004740834236145">
				<ele>55.720001220703125</ele>
				<time>2026-04-25T12:26:28Z</time>
			</trkpt>
			<trkpt lat="59.092318296432495" lon="30.004717707633972">
				<ele>55.47999954223633</ele>
				<time>2026-04-25T12:26:57Z</time>
			</trkpt>
			<trkpt lat="59.0924391746521" lon="30.0046603679657">
				<ele>54.34000015258789</ele>
				<time>2026-04-25T12:27:16Z</time>
			</trkpt>
			<trkpt lat="59.092503786087036" lon="30.00452172756195">
				<ele>54.81999969482422</ele>
				<time>2026-04-25T12:27:34Z</time>
			</trkpt>
			<trkpt lat="59.09259104728699" lon="30.004482984542847">
				<ele>55.790000915527344</ele>
				<time>2026-04-25T12:27:54Z</time>
			</trkpt>
			<trkpt lat="59.09269058704376" lon="30.00456154346466">
				<ele>56.33000183105469</ele>
				<time>2026-04-25T12:28:15Z</time>
			</trkpt>
			<trkpt lat="59.0927768945694" lon="30.004579424858093">
				<ele>57.47999954223633</ele>
				<time>2026-04-25T12:28:36Z</time>
			</trkpt>
			<trkpt lat="59.09284067153931" lon="30.004536509513855">
				<ele>57.77000045776367</ele>
				<time>2026-04-25T12:28:53Z</time>
			</trkpt>
			<trkpt lat="59.09293532371521" lon="30.004497289657593">
				<ele>57.81999969482422</ele>
				<time>2026-04-25T12:29:13Z</time>
			</trkpt>
			<trkpt lat="59.09298884868622" lon="30.004456162452698">
				<ele>58.150001525878906</ele>
				<time>2026-04-25T12:29:35Z</time>
			</trkpt>
			<trkpt lat="59.09295189380646" lon="30.004473328590393">
				<ele>59.59000015258789</ele>
				<time>2026-04-25T12:30:03Z</time>
			</trkpt>
			<trkpt lat="59.09295618534088" lon="30.004470705986023">
				<ele>59.560001373291016</ele>
				<time>2026-04-25T12:30:05Z</time>
			</trkpt>
			<trkpt lat="59.09295701980591" lon="30.00454270839691">
				<ele>59.11000061035156</ele>
				<time>2026-04-25T12:30:31Z</time>
			</trkpt>
			<trkpt lat="59.09292995929718" lon="30.004815220832825">
				<ele>58.369998931884766</ele>
				<time>2026-04-25T12:30:54Z</time>
			</trkpt>
			<trkpt lat="59.092936873435974" lon="30.00494384765625">
				<ele>58.38999938964844</ele>
				<time>2026-04-25T12:31:08Z</time>
			</trkpt>
			<trkpt lat="59.09297168254852" lon="30.005181074142456">
				<ele>58.65999984741211</ele>
				<time>2026-04-25T12:31:28Z</time>
			</trkpt>
			<trkpt lat="59.09298014640808" lon="30.005276441574097">
				<ele>58.7400016784668</ele>
				<time>2026-04-25T12:31:44Z</time>
			</trkpt>
			<trkpt lat="59.093005299568176" lon="30.00541627407074">
				<ele>59.90999984741211</ele>
				<time>2026-04-25T12:32:12Z</time>
			</trkpt>
			<trkpt lat="59.09302258491516" lon="30.005557537078857">
				<ele>59.93000030517578</ele>
				<time>2026-04-25T12:32:33Z</time>
			</trkpt>
			<trkpt lat="59.0930655002594" lon="30.0057555437088">
				<ele>60.630001068115234</ele>
				<time>2026-04-25T12:32:53Z</time>
			</trkpt>
			<trkpt lat="59.09310185909271" lon="30.006053805351257">
				<ele>61.290000915527344</ele>
				<time>2026-04-25T12:33:16Z</time>
			</trkpt>
			<trkpt lat="59.09301686286926" lon="30.006265878677368">
				<ele>60.93000030517578</ele>
				<time>2026-04-25T12:33:36Z</time>
			</trkpt>
			<trkpt lat="59.0928955078125" lon="30.006423234939575">
				<ele>61.31999969482422</ele>
				<time>2026-04-25T12:34:01Z</time>
			</trkpt>
			<trkpt lat="59.09290337562561" lon="30.00642728805542">
				<ele>61.91999816894531</ele>
				<time>2026-04-25T12:34:29Z</time>
			</trkpt>
			<trkpt lat="59.09295451641083" lon="30.0063658952713">
				<ele>61.83000183105469</ele>
				<time>2026-04-25T12:34:56Z</time>
			</trkpt>
			<trkpt lat="59.09301435947418" lon="30.006345629692078">
				<ele>61.33000183105469</ele>
				<time>2026-04-25T12:35:21Z</time>
			</trkpt>
			<trkpt lat="59.093100786209106" lon="30.00645661354065">
				<ele>60.209999084472656</ele>
				<time>2026-04-25T12:35:40Z</time>
			</trkpt>
			<trkpt lat="59.09317183494568" lon="30.006587386131287">
				<ele>60.33000183105469</ele>
				<time>2026-04-25T12:36:01Z</time>
			</trkpt>
			<trkpt lat="59.093180656433105" lon="30.006782174110413">
				<ele>60.119998931884766</ele>
				<time>2026-04-25T12:36:24Z</time>
			</trkpt>
			<trkpt lat="59.093164801597595" lon="30.007006883621216">
				<ele>60.22999954223633</ele>
				<time>2026-04-25T12:36:44Z</time>
			</trkpt>
			<trkpt lat="59.09322202205658" lon="30.007089614868164">
				<ele>60.540000915527344</ele>
				<time>2026-04-25T12:37:02Z</time>
			</trkpt>
			<trkpt lat="59.09319984912872" lon="30.00706911087036">
				<ele>61.130001068115234</ele>
				<time>2026-04-25T12:37:20Z</time>
			</trkpt>
			<trkpt lat="59.09321904182434" lon="30.00705635547638">
				<ele>61.630001068115234</ele>
				<time>2026-04-25T12:37:37Z</time>
			</trkpt>
			<trkpt lat="59.09323596954346" lon="30.00709307193756">
				<ele>62.18000030517578</ele>
				<time>2026-04-25T12:37:45Z</time>
			</trkpt>
			<trkpt lat="59.093279242515564" lon="30.007145285606384">
				<ele>63.16999816894531</ele>
				<time>2026-04-25T12:38:07Z</time>
			</trkpt>
			<trkpt lat="59.09334754943848" lon="30.007225275039673">
				<ele>63.119998931884766</ele>
				<time>2026-04-25T12:38:17Z</time>
			</trkpt>
			<trkpt lat="59.09334981441498" lon="30.0073025226593">
				<ele>63.099998474121094</ele>
				<time>2026-04-25T12:38:24Z</time>
			</trkpt>
			<trkpt lat="59.09334886074066" lon="30.007326364517212">
				<ele>63.38999938964844</ele>
				<time>2026-04-25T12:38:26Z</time>
			</trkpt>
			<trkpt lat="59.093308210372925" lon="30.007486701011658">
				<ele>63.790000915527344</ele>
				<time>2026-04-25T12:38:36Z</time>
			</trkpt>
			<trkpt lat="59.09321486949921" lon="30.00768506526947">
				<ele>64.43000030517578</ele>
				<time>2026-04-25T12:38:57Z</time>
			</trkpt>
			<trkpt lat="59.09318220615387" lon="30.007819294929504">
				<ele>64.69999694824219</ele>
				<time>2026-04-25T12:39:19Z</time>
			</trkpt>
			<trkpt lat="59.09314167499542" lon="30.007858872413635">
				<ele>64.38999938964844</ele>
				<time>2026-04-25T12:39:43Z</time>
			</trkpt>
			<trkpt lat="59.093119978904724" lon="30.00789225101471">
				<ele>64.86000061035156</ele>
				<time>2026-04-25T12:40:11Z</time>
			</trkpt>
			<trkpt lat="59.093186140060425" lon="30.00789499282837">
				<ele>63.33000183105469</ele>
				<time>2026-04-25T12:40:37Z</time>
			</trkpt>
			<trkpt lat="59.093220472335815" lon="30.00810134410858">
				<ele>61.45000076293945</ele>
				<time>2026-04-25T12:40:57Z</time>
			</trkpt>
			<trkpt lat="59.093255281448364" lon="30.008381247520447">
				<ele>60.83000183105469</ele>
				<time>2026-04-25T12:41:21Z</time>
			</trkpt>
			<trkpt lat="59.09335422515869" lon="30.008546233177185">
				<ele>60.959999084472656</ele>
				<time>2026-04-25T12:41:39Z</time>
			</trkpt>
			<trkpt lat="59.093366861343384" lon="30.008734464645386">
				<ele>60.779998779296875</ele>
				<time>2026-04-25T12:41:56Z</time>
			</trkpt>
			<trkpt lat="59.09339129924774" lon="30.008983731269836">
				<ele>60.65999984741211</ele>
				<time>2026-04-25T12:42:14Z</time>
			</trkpt>
			<trkpt lat="59.09339439868927" lon="30.009108424186707">
				<ele>59.970001220703125</ele>
				<time>2026-04-25T12:42:42Z</time>
			</trkpt>
			<trkpt lat="59.0934054851532" lon="30.009111046791077">
				<ele>58.849998474121094</ele>
				<time>2026-04-25T12:43:01Z</time>
			</trkpt>
			<trkpt lat="59.09345316886902" lon="30.009220361709595">
				<ele>57.93000030517578</ele>
				<time>2026-04-25T12:43:20Z</time>
			</trkpt>
			<trkpt lat="59.093478322029114" lon="30.00946593284607">
				<ele>57.029998779296875</ele>
				<time>2026-04-25T12:43:41Z</time>
			</trkpt>
			<trkpt lat="59.09345579147339" lon="30.009624242782593">
				<ele>57.38999938964844</ele>
				<time>2026-04-25T12:44:01Z</time>
			</trkpt>
			<trkpt lat="59.09344756603241" lon="30.009842038154602">
				<ele>57.70000076293945</ele>
				<time>2026-04-25T12:44:18Z</time>
			</trkpt>
			<trkpt lat="59.09346389770508" lon="30.01009476184845">
				<ele>58.2400016784668</ele>
				<time>2026-04-25T12:44:37Z</time>
			</trkpt>
			<trkpt lat="59.09349060058594" lon="30.010292053222656">
				<ele>58.849998474121094</ele>
				<time>2026-04-25T12:44:59Z</time>
			</trkpt>
			<trkpt lat="59.09350764751434" lon="30.010554790496826">
				<ele>59.04999923706055</ele>
				<time>2026-04-25T12:45:21Z</time>
			</trkpt>
			<trkpt lat="59.093501329422" lon="30.010659098625183">
				<ele>58.029998779296875</ele>
				<time>2026-04-25T12:45:48Z</time>
			</trkpt>
			<trkpt lat="59.09349048137665" lon="30.010660409927368">
				<ele>58.560001373291016</ele>
				<time>2026-04-25T12:46:05Z</time>
			</trkpt>
			<trkpt lat="59.09357404708862" lon="30.01047694683075">
				<ele>56.54999923706055</ele>
				<time>2026-04-25T12:46:31Z</time>
			</trkpt>
			<trkpt lat="59.09371316432953" lon="30.010391235351562">
				<ele>55.33000183105469</ele>
				<time>2026-04-25T12:46:48Z</time>
			</trkpt>
			<trkpt lat="59.093825459480286" lon="30.010226130485535">
				<ele>54.849998474121094</ele>
				<time>2026-04-25T12:47:09Z</time>
			</trkpt>
			<trkpt lat="59.09391951560974" lon="30.010184288024902">
				<ele>54.84000015258789</ele>
				<time>2026-04-25T12:47:29Z</time>
			</trkpt>
			<trkpt lat="59.09399938583374" lon="30.010170936584473">
				<ele>54.650001525878906</ele>
				<time>2026-04-25T12:47:44Z</time>
			</trkpt>
			<trkpt lat="59.09411263465881" lon="30.01029086112976">
				<ele>54.66999816894531</ele>
				<time>2026-04-25T12:48:01Z</time>
			</trkpt>
			<trkpt lat="59.09421372413635" lon="30.010432839393616">
				<ele>54.650001525878906</ele>
				<time>2026-04-25T12:48:18Z</time>
			</trkpt>
			<trkpt lat="59.09427726268768" lon="30.010488748550415">
				<ele>54.5099983215332</ele>
				<time>2026-04-25T12:48:37Z</time>
			</trkpt>
			<trkpt lat="59.09429848194122" lon="30.010493993759155">
				<ele>54.41999816894531</ele>
				<time>2026-04-25T12:49:03Z</time>
			</trkpt>
			<trkpt lat="59.09431505203247" lon="30.010349988937378">
				<ele>53.31999969482422</ele>
				<time>2026-04-25T12:49:29Z</time>
			</trkpt>
			<trkpt lat="59.094409227371216" lon="30.01016891002655">
				<ele>52.65999984741211</ele>
				<time>2026-04-25T12:49:48Z</time>
			</trkpt>
			<trkpt lat="59.094428300857544" lon="30.010162234306335">
				<ele>52.72999954223633</ele>
				<time>2026-04-25T12:49:54Z</time>
			</trkpt>
			<trkpt lat="59.09451651573181" lon="30.010117888450623">
				<ele>52.560001373291016</ele>
				<time>2026-04-25T12:50:13Z</time>
			</trkpt>
			<trkpt lat="59.09452033042908" lon="30.009973287582397">
				<ele>52.7599983215332</ele>
				<time>2026-04-25T12:50:35Z</time>
			</trkpt>
			<trkpt lat="59.09453594684601" lon="30.00996172428131">
				<ele>52.72999954223633</ele>
				<time>2026-04-25T12:50:55Z</time>
			</trkpt>
			<trkpt lat="59.09454846382141" lon="30.009955286979675">
				<ele>52.56999969482422</ele>
				<time>2026-04-25T12:51:19Z</time>
			</trkpt>
			<trkpt lat="59.09464120864868" lon="30.009922981262207">
				<ele>52.709999084472656</ele>
				<time>2026-04-25T12:51:41Z</time>
			</trkpt>
			<trkpt lat="59.09465968608856" lon="30.00992739200592">
				<ele>52.95000076293945</ele>
				<time>2026-04-25T12:51:46Z</time>
			</trkpt>
			<trkpt lat="59.09477734565735" lon="30.009978771209717">
				<ele>53.060001373291016</ele>
				<time>2026-04-25T12:52:07Z</time>
			</trkpt>
			<trkpt lat="59.094858050346375" lon="30.010120034217834">
				<ele>52.720001220703125</ele>
				<time>2026-04-25T12:52:27Z</time>
			</trkpt>
			<trkpt lat="59.094977498054504" lon="30.01022481918335">
				<ele>53.380001068115234</ele>
				<time>2026-04-25T12:52:48Z</time>
			</trkpt>
			<trkpt lat="59.095033168792725" lon="30.010191798210144">
				<ele>54.15999984741211</ele>
				<time>2026-04-25T12:53:08Z</time>
			</trkpt>
			<trkpt lat="59.09499680995941" lon="30.010213613510132">
				<ele>55.20000076293945</ele>
				<time>2026-04-25T12:53:32Z</time>
			</trkpt>
			<trkpt lat="59.09494602680206" lon="30.010133504867554">
				<ele>55.2400016784668</ele>
				<time>2026-04-25T12:53:57Z</time>
			</trkpt>
			<trkpt lat="59.09496474266052" lon="30.010024547576904">
				<ele>54.689998626708984</ele>
				<time>2026-04-25T12:54:17Z</time>
			</trkpt>
			<trkpt lat="59.09496462345123" lon="30.00991702079773">
				<ele>53.81999969482422</ele>
				<time>2026-04-25T12:54:35Z</time>
			</trkpt>
			<trkpt lat="59.09493601322174" lon="30.009767651557922">
				<ele>54.349998474121094</ele>
				<time>2026-04-25T12:54:53Z</time>
			</trkpt>
			<trkpt lat="59.09493792057037" lon="30.00960648059845">
				<ele>54.33000183105469</ele>
				<time>2026-04-25T12:55:11Z</time>
			</trkpt>
			<trkpt lat="59.094942808151245" lon="30.00936484336853">
				<ele>54.939998626708984</ele>
				<time>2026-04-25T12:55:33Z</time>
			</trkpt>
			<trkpt lat="59.094934821128845" lon="30.00928270816803">
				<ele>56.06999969482422</ele>
				<time>2026-04-25T12:55:52Z</time>
			</trkpt>
			<trkpt lat="59.09495270252228" lon="30.00920307636261">
				<ele>56.27000045776367</ele>
				<time>2026-04-25T12:56:10Z</time>
			</trkpt>
			<trkpt lat="59.094953536987305" lon="30.009160041809082">
				<ele>56.099998474121094</ele>
				<time>2026-04-25T12:56:14Z</time>
			</trkpt>
			<trkpt lat="59.094924092292786" lon="30.009140253067017">
				<ele>56.939998626708984</ele>
				<time>2026-04-25T12:56:37Z</time>
			</trkpt>
			<trkpt lat="59.09488356113434" lon="30.009061455726624">
				<ele>57.29999923706055</ele>
				<time>2026-04-25T12:56:54Z</time>
			</trkpt>
			<trkpt lat="59.09483623504639" lon="30.00888752937317">
				<ele>57.790000915527344</ele>
				<time>2026-04-25T12:57:13Z</time>
			</trkpt>
			<trkpt lat="59.09477877616882" lon="30.008732318878174">
				<ele>58.75</ele>
				<time>2026-04-25T12:57:34Z</time>
			</trkpt>
			<trkpt lat="59.09475314617157" lon="30.00854754447937">
				<ele>59.45000076293945</ele>
				<time>2026-04-25T12:57:54Z</time>
			</trkpt>
			<trkpt lat="59.09476447105408" lon="30.008423328399658">
				<ele>60.029998779296875</ele>
				<time>2026-04-25T12:58:14Z</time>
			</trkpt>
			<trkpt lat="59.09476900100708" lon="30.008366584777832">
				<ele>60.16999816894531</ele>
				<time>2026-04-25T12:58:43Z</time>
			</trkpt>
			<trkpt lat="59.094749331474304" lon="30.00830364227295">
				<ele>60.81999969482422</ele>
				<time>2026-04-25T12:59:11Z</time>
			</trkpt>
			<trkpt lat="59.09474158287048" lon="30.008190512657166">
				<ele>61.779998779296875</ele>
				<time>2026-04-25T12:59:30Z</time>
			</trkpt>
			<trkpt lat="59.09471881389618" lon="30.00800061225891">
				<ele>63.029998779296875</ele>
				<time>2026-04-25T12:59:50Z</time>
			</trkpt>
			<trkpt lat="59.09471774101257" lon="30.007742643356323">
				<ele>64.79000091552734</ele>
				<time>2026-04-25T13:00:12Z</time>
			</trkpt>
			<trkpt lat="59.09467959403992" lon="30.007529377937317">
				<ele>65.91999816894531</ele>
				<time>2026-04-25T13:00:31Z</time>
			</trkpt>
			<trkpt lat="59.09464454650879" lon="30.00729787349701">
				<ele>67.1500015258789</ele>
				<time>2026-04-25T13:00:54Z</time>
			</trkpt>
			<trkpt lat="59.09461557865143" lon="30.00702428817749">
				<ele>68.0999984741211</ele>
				<time>2026-04-25T13:01:13Z</time>
			</trkpt>
			<trkpt lat="59.09458923339844" lon="30.00681507587433">
				<ele>69.08999633789062</ele>
				<time>2026-04-25T13:01:33Z</time>
			</trkpt>
			<trkpt lat="59.09460115432739" lon="30.006650805473328">
				<ele>69.86000061035156</ele>
				<time>2026-04-25T13:01:53Z</time>
			</trkpt>
			<trkpt lat="59.0945702791214" lon="30.006577253341675">
				<ele>70.19999694824219</ele>
				<time>2026-04-25T13:02:10Z</time>
			</trkpt>
			<trkpt lat="59.09456479549408" lon="30.006511330604553">
				<ele>70.2300033569336</ele>
				<time>2026-04-25T13:02:23Z</time>
			</trkpt>
			<trkpt lat="59.09454786777496" lon="30.006415367126465">
				<ele>71.06999969482422</ele>
				<time>2026-04-25T13:02:49Z</time>
			</trkpt>
			<trkpt lat="59.09456431865692" lon="30.006482005119324">
				<ele>70.83000183105469</ele>
				<time>2026-04-25T13:03:19Z</time>
			</trkpt>
			<trkpt lat="59.094553112983704" lon="30.006433725357056">
				<ele>69.77999877929688</ele>
				<time>2026-04-25T13:03:42Z</time>
			</trkpt>
			<trkpt lat="59.09455144405365" lon="30.006370067596436">
				<ele>69.58000183105469</ele>
				<time>2026-04-25T13:03:53Z</time>
			</trkpt>
			<trkpt lat="59.09452402591705" lon="30.00632381439209">
				<ele>67.23999786376953</ele>
				<time>2026-04-25T13:04:02Z</time>
			</trkpt>
			<trkpt lat="59.09451866149902" lon="30.006320476531982">
				<ele>69.5999984741211</ele>
				<time>2026-04-25T13:04:04Z</time>
			</trkpt>
			<trkpt lat="59.094507455825806" lon="30.006245136260986">
				<ele>69.58999633789062</ele>
				<time>2026-04-25T13:04:23Z</time>
			</trkpt>
			<trkpt lat="59.094529151916504" lon="30.006070852279663">
				<ele>69.66000366210938</ele>
				<time>2026-04-25T13:04:36Z</time>
			</trkpt>
			<trkpt lat="59.094529151916504" lon="30.005831480026245">
				<ele>69.4800033569336</ele>
				<time>2026-04-25T13:04:54Z</time>
			</trkpt>
			<trkpt lat="59.09448957443237" lon="30.00562870502472">
				<ele>69.83000183105469</ele>
				<time>2026-04-25T13:05:14Z</time>
			</trkpt>
			<trkpt lat="59.09449815750122" lon="30.005475163459778">
				<ele>69.9800033569336</ele>
				<time>2026-04-25T13:05:33Z</time>
			</trkpt>
			<trkpt lat="59.09449529647827" lon="30.005447506904602">
				<ele>69.93000030517578</ele>
				<time>2026-04-25T13:05:35Z</time>
			</trkpt>
			<trkpt lat="59.09450447559357" lon="30.00520384311676">
				<ele>70.36000061035156</ele>
				<time>2026-04-25T13:05:57Z</time>
			</trkpt>
			<trkpt lat="59.09444499015808" lon="30.005175232887268">
				<ele>70.55999755859375</ele>
				<time>2026-04-25T13:06:15Z</time>
			</trkpt>
			<trkpt lat="59.09439146518707" lon="30.004993319511414">
				<ele>71.2300033569336</ele>
				<time>2026-04-25T13:06:37Z</time>
			</trkpt>
			<trkpt lat="59.09440040588379" lon="30.004748463630676">
				<ele>71.5</ele>
				<time>2026-04-25T13:06:55Z</time>
			</trkpt>
			<trkpt lat="59.09436643123627" lon="30.004512190818787">
				<ele>72.30999755859375</ele>
				<time>2026-04-25T13:07:15Z</time>
			</trkpt>
			<trkpt lat="59.09433853626251" lon="30.004411697387695">
				<ele>73.16999816894531</ele>
				<time>2026-04-25T13:07:26Z</time>
			</trkpt>
			<trkpt lat="59.09432542324066" lon="30.0043762922287">
				<ele>73.37000274658203</ele>
				<time>2026-04-25T13:07:30Z</time>
			</trkpt>
			<trkpt lat="59.09431993961334" lon="30.004303216934204">
				<ele>73.5999984741211</ele>
				<time>2026-04-25T13:07:45Z</time>
			</trkpt>
			<trkpt lat="59.09436595439911" lon="30.00415563583374">
				<ele>73.31999969482422</ele>
				<time>2026-04-25T13:08:14Z</time>
			</trkpt>
			<trkpt lat="59.09431982040405" lon="30.004098296165466">
				<ele>72.26000213623047</ele>
				<time>2026-04-25T13:08:42Z</time>
			</trkpt>
			<trkpt lat="59.09437823295593" lon="30.00395894050598">
				<ele>70.93000030517578</ele>
				<time>2026-04-25T13:08:59Z</time>
			</trkpt>
			<trkpt lat="59.094467997550964" lon="30.0039302110672">
				<ele>70.55999755859375</ele>
				<time>2026-04-25T13:09:17Z</time>
			</trkpt>
			<trkpt lat="59.0945930480957" lon="30.00390589237213">
				<ele>70.4800033569336</ele>
				<time>2026-04-25T13:09:38Z</time>
			</trkpt>
			<trkpt lat="59.094725608825684" lon="30.00373339653015">
				<ele>70.62999725341797</ele>
				<time>2026-04-25T13:10:00Z</time>
			</trkpt>
			<trkpt lat="59.09480154514313" lon="30.00358819961548">
				<ele>71.16000366210938</ele>
				<time>2026-04-25T13:10:21Z</time>
			</trkpt>
			<trkpt lat="59.09486734867096" lon="30.003580808639526">
				<ele>71.22000122070312</ele>
				<time>2026-04-25T13:10:40Z</time>
			</trkpt>
			<trkpt lat="59.09497404098511" lon="30.003491759300232">
				<ele>71.66999816894531</ele>
				<time>2026-04-25T13:10:59Z</time>
			</trkpt>
			<trkpt lat="59.095041155815125" lon="30.003481149673462">
				<ele>72.0</ele>
				<time>2026-04-25T13:11:12Z</time>
			</trkpt>
			<trkpt lat="59.09518218040466" lon="30.003172993659973">
				<ele>72.47000122070312</ele>
				<time>2026-04-25T13:11:36Z</time>
			</trkpt>
			<trkpt lat="59.095202803611755" lon="30.002933859825134">
				<ele>73.37000274658203</ele>
				<time>2026-04-25T13:11:51Z</time>
			</trkpt>
			<trkpt lat="59.09518754482269" lon="30.002824902534485">
				<ele>73.56999969482422</ele>
				<time>2026-04-25T13:11:57Z</time>
			</trkpt>
			<trkpt lat="59.09512484073639" lon="30.002548456192017">
				<ele>73.7699966430664</ele>
				<time>2026-04-25T13:12:13Z</time>
			</trkpt>
			<trkpt lat="59.09508442878723" lon="30.00216007232666">
				<ele>74.22000122070312</ele>
				<time>2026-04-25T13:12:28Z</time>
			</trkpt>
			<trkpt lat="59.0950425863266" lon="30.001917719841003">
				<ele>74.62000274658203</ele>
				<time>2026-04-25T13:12:39Z</time>
			</trkpt>
			<trkpt lat="59.09499764442444" lon="30.00170075893402">
				<ele>75.30999755859375</ele>
				<time>2026-04-25T13:12:49Z</time>
			</trkpt>
			<trkpt lat="59.0949444770813" lon="30.001380920410156">
				<ele>75.95999908447266</ele>
				<time>2026-04-25T13:13:03Z</time>
			</trkpt>
			<trkpt lat="59.094940185546875" lon="30.001352667808533">
				<ele>75.94999694824219</ele>
				<time>2026-04-25T13:13:04Z</time>
			</trkpt>
			<trkpt lat="59.09490215778351" lon="30.00106632709503">
				<ele>76.37999725341797</ele>
				<time>2026-04-25T13:13:16Z</time>
			</trkpt>
			<trkpt lat="59.09485602378845" lon="30.000707745552063">
				<ele>77.01000213623047</ele>
				<time>2026-04-25T13:13:32Z</time>
			</trkpt>
			<trkpt lat="59.09478974342346" lon="30.000290274620056">
				<ele>78.0</ele>
				<time>2026-04-25T13:13:49Z</time>
			</trkpt>
			<trkpt lat="59.094760060310364" lon="29.999784111976624">
				<ele>79.36000061035156</ele>
				<time>2026-04-25T13:14:14Z</time>
			</trkpt>
			<trkpt lat="59.094674825668335" lon="29.999345183372498">
				<ele>80.25</ele>
				<time>2026-04-25T13:14:33Z</time>
			</trkpt>
			<trkpt lat="59.09459149837494" lon="29.998955368995667">
				<ele>80.86000061035156</ele>
				<time>2026-04-25T13:14:50Z</time>
			</trkpt>
			<trkpt lat="59.09455156326294" lon="29.998591661453247">
				<ele>81.55999755859375</ele>
				<time>2026-04-25T13:15:09Z</time>
			</trkpt>
			<trkpt lat="59.09446084499359" lon="29.998122811317444">
				<ele>82.44999694824219</ele>
				<time>2026-04-25T13:15:30Z</time>
			</trkpt>
			<trkpt lat="59.09436619281769" lon="29.997572779655457">
				<ele>83.5999984741211</ele>
				<time>2026-04-25T13:15:53Z</time>
			</trkpt>
			<trkpt lat="59.094326853752136" lon="29.99719524383545">
				<ele>84.37999725341797</ele>
				<time>2026-04-25T13:16:10Z</time>
			</trkpt>
			<trkpt lat="59.09425735473633" lon="29.996894240379333">
				<ele>84.8499984741211</ele>
				<time>2026-04-25T13:16:23Z</time>
			</trkpt>
			<trkpt lat="59.094213366508484" lon="29.99661123752594">
				<ele>85.33000183105469</ele>
				<time>2026-04-25T13:16:37Z</time>
			</trkpt>
			<trkpt lat="59.09414601325989" lon="29.99634826183319">
				<ele>85.69999694824219</ele>
				<time>2026-04-25T13:16:49Z</time>
			</trkpt>
			<trkpt lat="59.094048619270325" lon="29.995906591415405">
				<ele>86.5</ele>
				<time>2026-04-25T13:17:07Z</time>
			</trkpt>
			<trkpt lat="59.094040393829346" lon="29.99586009979248">
				<ele>86.63999938964844</ele>
				<time>2026-04-25T13:17:09Z</time>
			</trkpt>
			<trkpt lat="59.09399855136871" lon="29.995662212371826">
				<ele>87.0</ele>
				<time>2026-04-25T13:17:18Z</time>
			</trkpt>
			<trkpt lat="59.09397256374359" lon="29.99547290802002">
				<ele>87.33999633789062</ele>
				<time>2026-04-25T13:17:29Z</time>
			</trkpt>
			<trkpt lat="59.093944668769836" lon="29.99526345729828">
				<ele>87.72000122070312</ele>
				<time>2026-04-25T13:17:38Z</time>
			</trkpt>
			<trkpt lat="59.093873262405396" lon="29.99486744403839">
				<ele>88.12000274658203</ele>
				<time>2026-04-25T13:17:56Z</time>
			</trkpt>
			<trkpt lat="59.093833565711975" lon="29.99460506439209">
				<ele>88.69999694824219</ele>
				<time>2026-04-25T13:18:07Z</time>
			</trkpt>
			<trkpt lat="59.09378743171692" lon="29.994231939315796">
				<ele>89.0199966430664</ele>
				<time>2026-04-25T13:18:23Z</time>
			</trkpt>
			<trkpt lat="59.093788504600525" lon="29.994192600250244">
				<ele>89.3499984741211</ele>
				<time>2026-04-25T13:18:25Z</time>
			</trkpt>
			<trkpt lat="59.093785762786865" lon="29.994108200073242">
				<ele>89.48999786376953</ele>
				<time>2026-04-25T13:18:29Z</time>
			</trkpt>
			<trkpt lat="59.09377610683441" lon="29.99397873878479">
				<ele>89.80999755859375</ele>
				<time>2026-04-25T13:18:36Z</time>
			</trkpt>
			<trkpt lat="59.0937637090683" lon="29.993929624557495">
				<ele>89.97000122070312</ele>
				<time>2026-04-25T13:18:39Z</time>
			</trkpt>
			<trkpt lat="59.09365773200989" lon="29.993519067764282">
				<ele>91.16999816894531</ele>
				<time>2026-04-25T13:18:59Z</time>
			</trkpt>
			<trkpt lat="59.09358048439026" lon="29.993171453475952">
				<ele>91.63999938964844</ele>
				<time>2026-04-25T13:19:15Z</time>
			</trkpt>
			<trkpt lat="59.09348273277283" lon="29.992730021476746">
				<ele>91.91000366210938</ele>
				<time>2026-04-25T13:19:33Z</time>
			</trkpt>
			<trkpt lat="59.09344041347504" lon="29.992437601089478">
				<ele>92.4800033569336</ele>
				<time>2026-04-25T13:19:46Z</time>
			</trkpt>
			<trkpt lat="59.093433022499084" lon="29.992335081100464">
				<ele>92.55000305175781</ele>
				<time>2026-04-25T13:19:52Z</time>
			</trkpt>
			<trkpt lat="59.09335494041443" lon="29.991978526115417">
				<ele>93.31999969482422</ele>
				<time>2026-04-25T13:20:07Z</time>
			</trkpt>
			<trkpt lat="59.09331476688385" lon="29.991708397865295">
				<ele>93.81999969482422</ele>
				<time>2026-04-25T13:20:21Z</time>
			</trkpt>
			<trkpt lat="59.09325635433197" lon="29.991345763206482">
				<ele>94.58000183105469</ele>
				<time>2026-04-25T13:20:37Z</time>
			</trkpt>
			<trkpt lat="59.09324026107788" lon="29.991162538528442">
				<ele>94.88999938964844</ele>
				<time>2026-04-25T13:20:46Z</time>
			</trkpt>
			<trkpt lat="59.09316325187683" lon="29.99081838130951">
				<ele>95.30000305175781</ele>
				<time>2026-04-25T13:21:01Z</time>
			</trkpt>
			<trkpt lat="59.09312164783478" lon="29.99043881893158">
				<ele>96.37999725341797</ele>
				<time>2026-04-25T13:21:18Z</time>
			</trkpt>
			<trkpt lat="59.09306466579437" lon="29.990085244178772">
				<ele>97.37999725341797</ele>
				<time>2026-04-25T13:21:33Z</time>
			</trkpt>
			<trkpt lat="59.09300649166107" lon="29.989776015281677">
				<ele>98.08000183105469</ele>
				<time>2026-04-25T13:21:48Z</time>
			</trkpt>
			<trkpt lat="59.092981934547424" lon="29.98950493335724">
				<ele>99.12000274658203</ele>
				<time>2026-04-25T13:22:02Z</time>
			</trkpt>
			<trkpt lat="59.09297847747803" lon="29.989482164382935">
				<ele>99.88999938964844</ele>
				<time>2026-04-25T13:22:17Z</time>
			</trkpt>
			<trkpt lat="59.09297013282776" lon="29.989531755447388">
				<ele>100.69000244140625</ele>
				<time>2026-04-25T13:22:29Z</time>
			</trkpt>
			<trkpt lat="59.092958092689514" lon="29.989303588867188">
				<ele>100.80000305175781</ele>
				<time>2026-04-25T13:22:41Z</time>
			</trkpt>
			<trkpt lat="59.092899680137634" lon="29.98893094062805">
				<ele>101.26000213623047</ele>
				<time>2026-04-25T13:22:58Z</time>
			</trkpt>
			<trkpt lat="59.092774629592896" lon="29.988550305366516">
				<ele>101.58999633789062</ele>
				<time>2026-04-25T13:23:17Z</time>
			</trkpt>
			<trkpt lat="59.092665791511536" lon="29.988223910331726">
				<ele>101.98999786376953</ele>
				<time>2026-04-25T13:23:33Z</time>
			</trkpt>
			<trkpt lat="59.09262955188751" lon="29.988178968429565">
				<ele>102.26000213623047</ele>
				<time>2026-04-25T13:23:48Z</time>
			</trkpt>
			<trkpt lat="59.092597007751465" lon="29.988210439682007">
				<ele>102.87000274658203</ele>
				<time>2026-04-25T13:24:04Z</time>
			</trkpt>
			<trkpt lat="59.09259307384491" lon="29.988232493400574">
				<ele>99.9800033569336</ele>
				<time>2026-04-25T13:24:14Z</time>
			</trkpt>
		</trkseg>
	</trk>
</gpx>
